AFR22J LFPG-KLAX
Flight info
| Callsign | AFR22J |
|---|---|
| Flight time | 11h 10m |
| Altitude | 30000 |
| Route | ATREX DCT VESAN DCT RATUK/N0489F320 DCT SOVAT DCT LESTA UP6 RODOL UM65 TENSO L603 BELOX DCT GOMUP/M084F320 DCT 59N020W 60N030W 60N040W 60N050W/M084F340 DCT PIDSO/N0492F340 DCT TUNNI DCT 59N080W 56N090W/N0484F360 55N093W 52N100W DCT RUDVI DCT BIL DCT JAC DCT OGD/N0487F380 DCT MLF DCT WINEN/N0478F370 Q73 EEVUN/N0476F380 Q73 HAKMN ANJLL4 |
| Aircraft | B77W/H-SDE1E2E3FGHIJ2J3J4J5M1RWXY/LB1D1 |
Departure
| Time | 2026-04-22 08:32 |
|---|---|
| Airport | Charles de Gaulle International Airport (LFPG) |
Arrival
| Time | 2026-04-22 19:42 |
|---|---|
| Airport | Los Angeles International Airport (KLAX) |
| Time | Latitude | Longitude | Altitude | Speed | Heading |
|---|---|---|---|---|---|
| 2026-04-22 08:02 | 49.00121 | 2.57534 | 359 ft | 0 kts | 357° |
| 2026-04-22 08:21 | 49.00110 | 2.57535 | 363 ft | 4 kts | 359° |
| 2026-04-22 08:21 | 49.00086 | 2.57535 | 359 ft | 4 kts | 343° |
| 2026-04-22 08:21 | 49.00071 | 2.57548 | 368 ft | 4 kts | 315° |
| 2026-04-22 08:21 | 49.00058 | 2.57574 | 362 ft | 4 kts | 283° |
| 2026-04-22 08:22 | 49.00056 | 2.57613 | 363 ft | 4 kts | 266° |
| 2026-04-22 08:22 | 49.00057 | 2.57623 | 363 ft | 2 kts | 265° |
| 2026-04-22 08:25 | 49.00057 | 2.57618 | 359 ft | 4 kts | 265° |
| 2026-04-22 08:26 | 49.00049 | 2.57477 | 365 ft | 17 kts | 265° |
| 2026-04-22 08:26 | 49.00020 | 2.57314 | 366 ft | 0 kts | 219° |
| 2026-04-22 08:27 | 48.99981 | 2.57281 | 366 ft | 13 kts | 218° |
| 2026-04-22 08:27 | 48.99947 | 2.57088 | 365 ft | 27 kts | 265° |
| 2026-04-22 08:27 | 48.99932 | 2.56802 | 359 ft | 27 kts | 265° |
| 2026-04-22 08:28 | 48.99917 | 2.56515 | 365 ft | 27 kts | 265° |
| 2026-04-22 08:28 | 48.99902 | 2.56230 | 365 ft | 27 kts | 265° |
| 2026-04-22 08:28 | 48.99860 | 2.56037 | 368 ft | 10 kts | 214° |
| 2026-04-22 08:28 | 48.99810 | 2.55964 | 365 ft | 10 kts | 244° |
| 2026-04-22 08:29 | 48.99784 | 2.55865 | 366 ft | 10 kts | 246° |
| 2026-04-22 08:29 | 48.99731 | 2.55814 | 363 ft | 6 kts | 189° |
| 2026-04-22 08:29 | 48.99716 | 2.55814 | 359 ft | 0 kts | 178° |
| 2026-04-22 08:30 | 48.99709 | 2.55815 | 363 ft | 3 kts | 178° |
| 2026-04-22 08:31 | 48.99673 | 2.55817 | 366 ft | 7 kts | 176° |
| 2026-04-22 08:31 | 48.99619 | 2.55838 | 367 ft | 9 kts | 140° |
| 2026-04-22 08:31 | 48.99616 | 2.56113 | 367 ft | 31 kts | 85° |
| 2026-04-22 08:32 | 48.99651 | 2.56799 | 359 ft | 98 kts | 85° |
| 2026-04-22 08:32 | 48.99724 | 2.58146 | 365 ft | 157 kts | 85° |
| 2026-04-22 08:32 | 48.99822 | 2.60015 | 553 ft | 179 kts | 84° |
| 2026-04-22 08:32 | 48.99910 | 2.61769 | 1350 ft | 160 kts | 85° |
| 2026-04-22 08:33 | 49.00008 | 2.63442 | 2044 ft | 158 kts | 86° |
| 2026-04-22 08:33 | 49.00113 | 2.65120 | 2492 ft | 163 kts | 86° |
| 2026-04-22 08:33 | 49.00211 | 2.66880 | 2858 ft | 173 kts | 86° |
| 2026-04-22 08:33 | 49.00306 | 2.68782 | 3212 ft | 182 kts | 87° |
| 2026-04-22 08:34 | 49.00412 | 2.70679 | 3712 ft | 184 kts | 87° |
| 2026-04-22 08:34 | 49.00517 | 2.72720 | 3975 ft | 200 kts | 86° |
| 2026-04-22 08:34 | 49.00627 | 2.74926 | 4293 ft | 217 kts | 87° |
| 2026-04-22 08:34 | 49.00739 | 2.77305 | 4711 ft | 230 kts | 86° |
| 2026-04-22 08:35 | 49.00868 | 2.79742 | 5307 ft | 236 kts | 86° |
| 2026-04-22 08:35 | 49.01010 | 2.82269 | 5850 ft | 240 kts | 85° |
| 2026-04-22 08:35 | 49.01411 | 2.84732 | 6442 ft | 246 kts | 62° |
| 2026-04-22 08:35 | 49.02586 | 2.86712 | 6790 ft | 264 kts | 38° |
| 2026-04-22 08:36 | 49.04269 | 2.87825 | 7440 ft | 267 kts | 15° |
| 2026-04-22 08:36 | 49.06161 | 2.87865 | 7918 ft | 281 kts | 352° |
| 2026-04-22 08:36 | 49.08032 | 2.86852 | 8489 ft | 288 kts | 340° |
| 2026-04-22 08:36 | 49.09849 | 2.85584 | 9088 ft | 291 kts | 339° |
| 2026-04-22 08:37 | 49.11700 | 2.84254 | 9778 ft | 293 kts | 339° |
| 2026-04-22 08:37 | 49.13538 | 2.82927 | 10375 ft | 296 kts | 339° |
| 2026-04-22 08:37 | 49.15439 | 2.81566 | 10711 ft | 310 kts | 339° |
| 2026-04-22 08:37 | 49.17444 | 2.80145 | 10860 ft | 331 kts | 339° |
| 2026-04-22 08:38 | 49.19603 | 2.78624 | 11051 ft | 351 kts | 339° |
| 2026-04-22 08:38 | 49.21886 | 2.77019 | 11272 ft | 370 kts | 339° |
| 2026-04-22 08:38 | 49.24264 | 2.75344 | 11834 ft | 379 kts | 338° |
| 2026-04-22 08:38 | 49.26659 | 2.73656 | 12537 ft | 384 kts | 338° |
| 2026-04-22 08:39 | 49.29109 | 2.71932 | 13348 ft | 386 kts | 338° |
| 2026-04-22 08:39 | 49.31562 | 2.70205 | 14179 ft | 388 kts | 338° |
| 2026-04-22 08:39 | 49.34011 | 2.68484 | 14905 ft | 391 kts | 338° |
| 2026-04-22 08:39 | 49.36461 | 2.66759 | 15677 ft | 391 kts | 338° |
| 2026-04-22 08:40 | 49.38948 | 2.65006 | 16467 ft | 393 kts | 338° |
| 2026-04-22 08:40 | 49.41444 | 2.63249 | 17189 ft | 396 kts | 337° |
| 2026-04-22 08:40 | 49.43967 | 2.61470 | 17928 ft | 399 kts | 337° |
| 2026-04-22 08:40 | 49.46500 | 2.59680 | 18631 ft | 402 kts | 336° |
| 2026-04-22 08:41 | 49.49020 | 2.57897 | 19301 ft | 402 kts | 336° |
| 2026-04-22 08:41 | 49.51548 | 2.56108 | 19995 ft | 402 kts | 336° |
| 2026-04-22 08:41 | 49.54103 | 2.54300 | 20695 ft | 402 kts | 335° |
| 2026-04-22 08:41 | 49.56626 | 2.52509 | 21393 ft | 402 kts | 335° |
| 2026-04-22 08:42 | 49.59168 | 2.50702 | 22087 ft | 402 kts | 335° |
| 2026-04-22 08:42 | 49.61718 | 2.48889 | 22768 ft | 402 kts | 334° |
| 2026-04-22 08:42 | 49.64242 | 2.47092 | 23381 ft | 404 kts | 334° |
| 2026-04-22 08:42 | 49.66803 | 2.45266 | 23953 ft | 406 kts | 334° |
| 2026-04-22 08:43 | 49.69386 | 2.43423 | 24415 ft | 408 kts | 334° |
| 2026-04-22 08:43 | 49.71960 | 2.41583 | 24851 ft | 411 kts | 334° |
| 2026-04-22 08:43 | 49.74577 | 2.39712 | 25297 ft | 413 kts | 334° |
| 2026-04-22 08:43 | 49.77204 | 2.37831 | 25757 ft | 415 kts | 334° |
| 2026-04-22 08:44 | 49.79828 | 2.36017 | 26197 ft | 417 kts | 336° |
| 2026-04-22 08:44 | 49.82498 | 2.34400 | 26631 ft | 420 kts | 338° |
| 2026-04-22 08:44 | 49.85261 | 2.32835 | 27035 ft | 422 kts | 339° |
| 2026-04-22 08:44 | 49.88042 | 2.31285 | 27444 ft | 424 kts | 339° |
| 2026-04-22 08:45 | 49.90800 | 2.29736 | 27838 ft | 426 kts | 338° |
| 2026-04-22 08:45 | 49.93594 | 2.28148 | 28227 ft | 428 kts | 338° |
| 2026-04-22 08:45 | 49.96404 | 2.26533 | 28619 ft | 429 kts | 338° |
| 2026-04-22 08:45 | 49.99173 | 2.24929 | 28976 ft | 431 kts | 338° |
| 2026-04-22 08:46 | 50.02002 | 2.23282 | 29331 ft | 433 kts | 338° |
| 2026-04-22 08:46 | 50.04847 | 2.21622 | 29672 ft | 434 kts | 338° |
| 2026-04-22 08:46 | 50.07660 | 2.19978 | 29982 ft | 436 kts | 338° |
| 2026-04-22 08:46 | 50.10518 | 2.18306 | 30214 ft | 439 kts | 338° |
| 2026-04-22 08:47 | 50.13367 | 2.16637 | 30247 ft | 442 kts | 338° |
| 2026-04-22 08:47 | 50.19101 | 2.13274 | 30275 ft | 437 kts | 338° |
| 2026-04-22 08:48 | 50.24789 | 2.09929 | 30287 ft | 435 kts | 338° |
| 2026-04-22 08:48 | 50.30462 | 2.06586 | 30293 ft | 435 kts | 338° |
| 2026-04-22 08:49 | 50.35934 | 2.02712 | 30298 ft | 434 kts | 329° |
| 2026-04-22 08:49 | 50.40975 | 1.97515 | 30296 ft | 435 kts | 322° |
| 2026-04-22 08:50 | 50.45595 | 1.91299 | 30299 ft | 436 kts | 319° |
| 2026-04-22 08:50 | 50.50137 | 1.85006 | 30294 ft | 437 kts | 319° |
| 2026-04-22 08:51 | 50.54715 | 1.78706 | 30295 ft | 438 kts | 320° |
| 2026-04-22 08:51 | 50.59303 | 1.72409 | 30297 ft | 438 kts | 320° |
| 2026-04-22 08:52 | 50.63126 | 1.67152 | 30293 ft | 438 kts | 320° |
| 2026-04-22 08:52 | 50.67711 | 1.60829 | 30296 ft | 438 kts | 319° |
| 2026-04-22 08:53 | 50.72304 | 1.54470 | 30298 ft | 438 kts | 319° |
| 2026-04-22 08:53 | 50.76889 | 1.48111 | 30302 ft | 438 kts | 319° |
| 2026-04-22 08:54 | 50.81611 | 1.42053 | 30313 ft | 438 kts | 322° |
| 2026-04-22 08:54 | 50.86432 | 1.36184 | 30337 ft | 438 kts | 323° |
| 2026-04-22 08:55 | 50.91252 | 1.30305 | 30339 ft | 438 kts | 322° |
| 2026-04-22 08:55 | 50.96073 | 1.24380 | 30338 ft | 439 kts | 322° |
| 2026-04-22 08:56 | 51.00909 | 1.18403 | 30346 ft | 439 kts | 322° |
| 2026-04-22 08:56 | 51.05714 | 1.12444 | 30342 ft | 440 kts | 322° |
| 2026-04-22 08:57 | 51.10550 | 1.06430 | 30344 ft | 440 kts | 322° |
| 2026-04-22 08:57 | 51.15367 | 1.00424 | 30345 ft | 441 kts | 322° |
| 2026-04-22 08:58 | 51.20154 | 0.94440 | 30340 ft | 441 kts | 322° |
| 2026-04-22 08:58 | 51.24996 | 0.88371 | 30342 ft | 442 kts | 322° |
| 2026-04-22 08:59 | 51.29811 | 0.82318 | 30418 ft | 442 kts | 322° |
| 2026-04-22 08:59 | 51.34659 | 0.76208 | 30338 ft | 442 kts | 322° |
| 2026-04-22 09:00 | 51.39481 | 0.70112 | 30344 ft | 443 kts | 322° |
| 2026-04-22 09:00 | 51.44295 | 0.64012 | 30345 ft | 442 kts | 321° |
| 2026-04-22 09:01 | 51.49154 | 0.57835 | 30338 ft | 443 kts | 321° |
| 2026-04-22 09:01 | 51.53939 | 0.51736 | 30358 ft | 443 kts | 321° |
| 2026-04-22 09:02 | 51.58792 | 0.45535 | 30361 ft | 443 kts | 321° |
| 2026-04-22 09:02 | 51.63607 | 0.39364 | 30357 ft | 443 kts | 321° |
| 2026-04-22 09:03 | 51.68429 | 0.33167 | 30360 ft | 444 kts | 321° |
| 2026-04-22 09:03 | 51.73252 | 0.26950 | 30377 ft | 444 kts | 321° |
| 2026-04-22 09:04 | 51.78079 | 0.20711 | 30380 ft | 445 kts | 321° |
| 2026-04-22 09:04 | 51.82900 | 0.14462 | 30356 ft | 445 kts | 321° |
| 2026-04-22 09:05 | 51.87731 | 0.08183 | 30379 ft | 445 kts | 321° |
| 2026-04-22 09:05 | 51.92542 | 0.01912 | 30378 ft | 445 kts | 321° |
| 2026-04-22 09:06 | 51.97390 | -0.04425 | 30377 ft | 446 kts | 321° |
| 2026-04-22 09:06 | 52.02186 | -0.10713 | 30368 ft | 446 kts | 321° |
| 2026-04-22 09:07 | 52.07017 | -0.17065 | 30367 ft | 447 kts | 320° |
| 2026-04-22 09:07 | 52.11860 | -0.23451 | 30366 ft | 447 kts | 320° |
| 2026-04-22 09:08 | 52.16700 | -0.29850 | 30354 ft | 447 kts | 320° |
| 2026-04-22 09:08 | 52.21523 | -0.36246 | 30372 ft | 448 kts | 320° |
| 2026-04-22 09:09 | 52.26342 | -0.42655 | 30380 ft | 448 kts | 320° |
| 2026-04-22 09:09 | 52.31163 | -0.49086 | 30385 ft | 448 kts | 320° |
| 2026-04-22 09:10 | 52.35980 | -0.55530 | 30370 ft | 449 kts | 320° |
| 2026-04-22 09:10 | 52.40812 | -0.62012 | 30378 ft | 449 kts | 320° |
| 2026-04-22 09:11 | 52.45636 | -0.68504 | 30380 ft | 449 kts | 320° |
| 2026-04-22 09:11 | 52.50457 | -0.75010 | 30386 ft | 449 kts | 320° |
| 2026-04-22 09:12 | 52.55277 | -0.81533 | 30400 ft | 449 kts | 320° |
| 2026-04-22 09:12 | 52.60110 | -0.88095 | 30401 ft | 450 kts | 320° |
| 2026-04-22 09:13 | 52.64931 | -0.94659 | 30349 ft | 450 kts | 320° |
| 2026-04-22 09:13 | 52.69758 | -1.01250 | 30404 ft | 451 kts | 319° |
| 2026-04-22 09:14 | 52.74563 | -1.07886 | 30410 ft | 451 kts | 317° |
| 2026-04-22 09:14 | 52.79133 | -1.14962 | 30415 ft | 451 kts | 315° |
| 2026-04-22 09:15 | 52.83642 | -1.22104 | 30416 ft | 451 kts | 315° |
| 2026-04-22 09:15 | 52.88201 | -1.29309 | 30441 ft | 451 kts | 315° |
| 2026-04-22 09:16 | 52.92745 | -1.36483 | 30437 ft | 451 kts | 315° |
| 2026-04-22 09:16 | 52.97264 | -1.43633 | 30434 ft | 451 kts | 315° |
| 2026-04-22 09:17 | 53.01832 | -1.50887 | 30419 ft | 452 kts | 315° |
| 2026-04-22 09:17 | 53.06362 | -1.58100 | 30437 ft | 453 kts | 315° |
| 2026-04-22 09:17 | 53.08620 | -1.61705 | 30663 ft | 453 kts | 315° |
| 2026-04-22 09:18 | 53.10873 | -1.65408 | 31069 ft | 451 kts | 313° |
| 2026-04-22 09:18 | 53.13005 | -1.69174 | 31442 ft | 449 kts | 312° |
| 2026-04-22 09:18 | 53.15103 | -1.73021 | 31804 ft | 448 kts | 311° |
| 2026-04-22 09:18 | 53.17198 | -1.76917 | 32106 ft | 448 kts | 311° |
| 2026-04-22 09:19 | 53.19267 | -1.80771 | 32343 ft | 448 kts | 311° |
| 2026-04-22 09:19 | 53.23458 | -1.88534 | 32417 ft | 449 kts | 311° |
| 2026-04-22 09:20 | 53.27641 | -1.96242 | 32421 ft | 447 kts | 311° |
| 2026-04-22 09:20 | 53.31802 | -2.03908 | 32430 ft | 446 kts | 311° |
| 2026-04-22 09:21 | 53.35972 | -2.11612 | 32432 ft | 446 kts | 311° |
| 2026-04-22 09:21 | 53.40125 | -2.19310 | 32432 ft | 447 kts | 311° |
| 2026-04-22 09:22 | 53.44297 | -2.27068 | 32428 ft | 447 kts | 311° |
| 2026-04-22 09:22 | 53.48455 | -2.34827 | 32430 ft | 448 kts | 311° |
| 2026-04-22 09:23 | 53.52618 | -2.42619 | 32427 ft | 448 kts | 311° |
| 2026-04-22 09:23 | 53.56754 | -2.50384 | 32431 ft | 449 kts | 310° |
| 2026-04-22 09:24 | 53.60898 | -2.58192 | 32427 ft | 449 kts | 310° |
| 2026-04-22 09:24 | 53.65037 | -2.66014 | 32429 ft | 449 kts | 310° |
| 2026-04-22 09:25 | 53.69205 | -2.73915 | 32431 ft | 449 kts | 310° |
| 2026-04-22 09:25 | 53.73346 | -2.81788 | 32432 ft | 449 kts | 310° |
| 2026-04-22 09:26 | 53.77479 | -2.89674 | 32427 ft | 448 kts | 310° |
| 2026-04-22 09:26 | 53.81601 | -2.97564 | 32428 ft | 448 kts | 310° |
| 2026-04-22 09:27 | 53.85745 | -3.05522 | 32431 ft | 448 kts | 310° |
| 2026-04-22 09:27 | 53.89815 | -3.13365 | 32428 ft | 448 kts | 310° |
| 2026-04-22 09:28 | 53.93922 | -3.21302 | 32428 ft | 448 kts | 310° |
| 2026-04-22 09:28 | 53.98026 | -3.29260 | 32434 ft | 448 kts | 309° |
| 2026-04-22 09:29 | 54.02128 | -3.37242 | 32437 ft | 448 kts | 309° |
| 2026-04-22 09:29 | 54.06233 | -3.45253 | 32438 ft | 449 kts | 309° |
| 2026-04-22 09:30 | 54.10329 | -3.53273 | 32441 ft | 449 kts | 309° |
| 2026-04-22 09:30 | 54.14403 | -3.61277 | 32439 ft | 449 kts | 309° |
| 2026-04-22 09:31 | 54.18475 | -3.69304 | 32442 ft | 449 kts | 309° |
| 2026-04-22 09:31 | 54.22579 | -3.77418 | 32444 ft | 449 kts | 309° |
| 2026-04-22 09:32 | 54.26642 | -3.85480 | 32446 ft | 449 kts | 309° |
| 2026-04-22 09:32 | 54.30728 | -3.93614 | 32446 ft | 449 kts | 309° |
| 2026-04-22 09:33 | 54.34782 | -4.01711 | 32447 ft | 449 kts | 309° |
| 2026-04-22 09:33 | 54.38857 | -4.09876 | 32448 ft | 449 kts | 309° |
| 2026-04-22 09:34 | 54.42898 | -4.18002 | 32448 ft | 449 kts | 308° |
| 2026-04-22 09:34 | 54.46961 | -4.26198 | 32449 ft | 449 kts | 308° |
| 2026-04-22 09:35 | 54.53010 | -4.38451 | 32451 ft | 449 kts | 308° |
| 2026-04-22 09:35 | 54.57050 | -4.46671 | 32453 ft | 449 kts | 308° |
| 2026-04-22 09:36 | 54.61101 | -4.54939 | 32454 ft | 449 kts | 308° |
| 2026-04-22 09:36 | 54.65130 | -4.63190 | 32450 ft | 449 kts | 308° |
| 2026-04-22 09:37 | 54.69129 | -4.71409 | 32449 ft | 450 kts | 308° |
| 2026-04-22 09:37 | 54.73163 | -4.79725 | 32453 ft | 450 kts | 308° |
| 2026-04-22 09:38 | 54.77164 | -4.88004 | 32455 ft | 450 kts | 308° |
| 2026-04-22 09:38 | 54.81180 | -4.96340 | 32453 ft | 450 kts | 308° |
| 2026-04-22 09:39 | 54.85186 | -5.04685 | 32456 ft | 450 kts | 308° |
| 2026-04-22 09:39 | 54.89176 | -5.13024 | 32459 ft | 450 kts | 307° |
| 2026-04-22 09:40 | 54.92525 | -5.20047 | 32461 ft | 450 kts | 307° |
| 2026-04-22 09:40 | 54.96499 | -5.28405 | 32458 ft | 450 kts | 307° |
| 2026-04-22 09:41 | 55.00489 | -5.36827 | 32463 ft | 450 kts | 307° |
| 2026-04-22 09:41 | 55.04447 | -5.45208 | 32468 ft | 449 kts | 307° |
| 2026-04-22 09:42 | 55.08425 | -5.53662 | 32469 ft | 449 kts | 307° |
| 2026-04-22 09:42 | 55.12361 | -5.62055 | 32466 ft | 449 kts | 307° |
| 2026-04-22 09:43 | 55.16322 | -5.70531 | 32466 ft | 449 kts | 307° |
| 2026-04-22 09:43 | 55.20251 | -5.78970 | 32467 ft | 449 kts | 307° |
| 2026-04-22 09:44 | 55.24200 | -5.87478 | 32465 ft | 449 kts | 307° |
| 2026-04-22 09:44 | 55.28146 | -5.96011 | 32467 ft | 450 kts | 307° |
| 2026-04-22 09:45 | 55.32062 | -6.04507 | 32464 ft | 450 kts | 307° |
| 2026-04-22 09:45 | 55.36011 | -6.13107 | 32466 ft | 450 kts | 307° |
| 2026-04-22 09:46 | 55.39939 | -6.21689 | 32477 ft | 450 kts | 306° |
| 2026-04-22 09:46 | 55.43832 | -6.30226 | 32478 ft | 450 kts | 306° |
| 2026-04-22 09:47 | 55.47754 | -6.38856 | 32477 ft | 450 kts | 306° |
| 2026-04-22 09:47 | 55.51663 | -6.47489 | 32480 ft | 450 kts | 306° |
| 2026-04-22 09:48 | 55.55546 | -6.56094 | 32480 ft | 450 kts | 306° |
| 2026-04-22 09:48 | 55.59455 | -6.64787 | 32482 ft | 450 kts | 306° |
| 2026-04-22 09:49 | 55.63329 | -6.73433 | 32466 ft | 450 kts | 306° |
| 2026-04-22 09:49 | 55.67205 | -6.82116 | 32466 ft | 450 kts | 306° |
| 2026-04-22 09:50 | 55.71090 | -6.90849 | 32467 ft | 450 kts | 306° |
| 2026-04-22 09:50 | 55.74961 | -6.99582 | 32486 ft | 451 kts | 306° |
| 2026-04-22 09:51 | 55.78818 | -7.08314 | 32488 ft | 451 kts | 306° |
| 2026-04-22 09:51 | 55.82686 | -7.17102 | 32470 ft | 451 kts | 306° |
| 2026-04-22 09:52 | 55.86560 | -7.25936 | 32474 ft | 451 kts | 306° |
| 2026-04-22 09:52 | 55.90409 | -7.34748 | 32479 ft | 452 kts | 305° |
| 2026-04-22 09:53 | 55.94265 | -7.43605 | 32478 ft | 452 kts | 305° |
| 2026-04-22 09:53 | 55.98135 | -7.52525 | 32482 ft | 453 kts | 305° |
| 2026-04-22 09:54 | 56.01970 | -7.61399 | 32483 ft | 453 kts | 305° |
| 2026-04-22 09:54 | 56.05818 | -7.70336 | 32483 ft | 453 kts | 305° |
| 2026-04-22 09:55 | 56.09661 | -7.79293 | 32483 ft | 453 kts | 305° |
| 2026-04-22 09:55 | 56.13491 | -7.88253 | 32484 ft | 454 kts | 305° |
| 2026-04-22 09:56 | 56.17329 | -7.97266 | 32487 ft | 454 kts | 305° |
| 2026-04-22 09:56 | 56.21164 | -8.06306 | 32486 ft | 455 kts | 305° |
| 2026-04-22 09:57 | 56.24969 | -8.15306 | 32488 ft | 455 kts | 305° |
| 2026-04-22 09:57 | 56.28809 | -8.24425 | 32487 ft | 456 kts | 305° |
| 2026-04-22 09:58 | 56.32644 | -8.33565 | 32489 ft | 456 kts | 305° |
| 2026-04-22 09:58 | 56.36444 | -8.42658 | 32488 ft | 457 kts | 305° |
| 2026-04-22 09:59 | 56.40267 | -8.51838 | 32488 ft | 458 kts | 305° |
| 2026-04-22 09:59 | 56.44093 | -8.61059 | 32489 ft | 458 kts | 305° |
| 2026-04-22 10:00 | 56.47919 | -8.70318 | 32489 ft | 459 kts | 305° |
| 2026-04-22 10:00 | 56.51743 | -8.79606 | 32490 ft | 460 kts | 305° |
| 2026-04-22 10:01 | 56.55567 | -8.88932 | 32488 ft | 461 kts | 305° |
| 2026-04-22 10:01 | 56.59391 | -8.98293 | 32493 ft | 462 kts | 305° |
| 2026-04-22 10:02 | 56.63208 | -9.07673 | 32491 ft | 463 kts | 305° |
| 2026-04-22 10:02 | 56.67021 | -9.17076 | 32490 ft | 463 kts | 305° |
| 2026-04-22 10:03 | 56.70838 | -9.26530 | 32489 ft | 464 kts | 305° |
| 2026-04-22 10:03 | 56.74656 | -9.36024 | 32487 ft | 465 kts | 305° |
| 2026-04-22 10:04 | 56.78443 | -9.45480 | 32498 ft | 464 kts | 305° |
| 2026-04-22 10:04 | 56.82270 | -9.55065 | 32501 ft | 465 kts | 305° |
| 2026-04-22 10:05 | 56.86068 | -9.64619 | 32494 ft | 467 kts | 305° |
| 2026-04-22 10:05 | 56.89869 | -9.74219 | 32495 ft | 468 kts | 305° |
| 2026-04-22 10:06 | 56.93687 | -9.83903 | 32494 ft | 469 kts | 305° |
| 2026-04-22 10:06 | 56.97500 | -9.93607 | 32496 ft | 469 kts | 305° |
| 2026-04-22 10:07 | 57.00998 | -10.03647 | 32489 ft | 469 kts | 296° |
| 2026-04-22 10:07 | 57.03735 | -10.14530 | 32498 ft | 469 kts | 294° |
| 2026-04-22 10:08 | 57.06405 | -10.25415 | 32491 ft | 468 kts | 294° |
| 2026-04-22 10:08 | 57.09105 | -10.36363 | 32499 ft | 469 kts | 294° |
| 2026-04-22 10:09 | 57.11800 | -10.47265 | 32498 ft | 472 kts | 294° |
| 2026-04-22 10:09 | 57.14534 | -10.58348 | 32504 ft | 477 kts | 294° |
| 2026-04-22 10:10 | 57.17278 | -10.69525 | 32496 ft | 481 kts | 294° |
| 2026-04-22 10:10 | 57.19998 | -10.80672 | 32489 ft | 477 kts | 294° |
| 2026-04-22 10:11 | 57.22732 | -10.91935 | 32498 ft | 483 kts | 294° |
| 2026-04-22 10:11 | 57.25449 | -11.03184 | 32485 ft | 478 kts | 294° |
| 2026-04-22 10:12 | 57.28148 | -11.14418 | 32485 ft | 475 kts | 294° |
| 2026-04-22 10:12 | 57.30812 | -11.25560 | 32494 ft | 475 kts | 294° |
| 2026-04-22 10:13 | 57.33485 | -11.36800 | 32489 ft | 476 kts | 294° |
| 2026-04-22 10:13 | 57.36135 | -11.48003 | 32494 ft | 478 kts | 294° |
| 2026-04-22 10:14 | 57.38803 | -11.59341 | 32488 ft | 480 kts | 294° |
| 2026-04-22 10:14 | 57.41477 | -11.70763 | 32490 ft | 482 kts | 294° |
| 2026-04-22 10:15 | 57.44144 | -11.82216 | 32490 ft | 484 kts | 294° |
| 2026-04-22 10:15 | 57.46799 | -11.93681 | 32491 ft | 486 kts | 295° |
| 2026-04-22 10:16 | 57.49457 | -12.05220 | 32489 ft | 487 kts | 294° |
| 2026-04-22 10:16 | 57.52118 | -12.16833 | 32491 ft | 488 kts | 294° |
| 2026-04-22 10:17 | 57.54772 | -12.28487 | 32491 ft | 489 kts | 294° |
| 2026-04-22 10:17 | 57.57420 | -12.40169 | 32489 ft | 490 kts | 294° |
| 2026-04-22 10:18 | 57.60061 | -12.51889 | 32488 ft | 490 kts | 294° |
| 2026-04-22 10:18 | 57.62692 | -12.63629 | 32489 ft | 491 kts | 294° |
| 2026-04-22 10:19 | 57.65311 | -12.75381 | 32487 ft | 492 kts | 294° |
| 2026-04-22 10:19 | 57.67933 | -12.87211 | 32490 ft | 493 kts | 294° |
| 2026-04-22 10:20 | 57.70548 | -12.99081 | 32487 ft | 495 kts | 294° |
| 2026-04-22 10:20 | 57.73164 | -13.11023 | 32491 ft | 496 kts | 294° |
| 2026-04-22 10:21 | 57.75756 | -13.22924 | 32488 ft | 496 kts | 294° |
| 2026-04-22 10:21 | 57.78353 | -13.34913 | 32486 ft | 496 kts | 294° |
| 2026-04-22 10:22 | 57.80937 | -13.46913 | 32489 ft | 496 kts | 294° |
| 2026-04-22 10:22 | 57.83509 | -13.58931 | 32490 ft | 497 kts | 294° |
| 2026-04-22 10:23 | 57.86071 | -13.70969 | 32493 ft | 497 kts | 294° |
| 2026-04-22 10:23 | 57.88202 | -13.81037 | 32493 ft | 497 kts | 294° |
| 2026-04-22 10:24 | 57.91162 | -13.95105 | 32494 ft | 497 kts | 294° |
| 2026-04-22 10:24 | 57.93268 | -14.05171 | 32492 ft | 498 kts | 294° |
| 2026-04-22 10:25 | 57.95802 | -14.17353 | 32492 ft | 498 kts | 294° |
| 2026-04-22 10:25 | 57.98322 | -14.29535 | 32492 ft | 499 kts | 293° |
| 2026-04-22 10:26 | 58.00833 | -14.41751 | 32492 ft | 499 kts | 294° |
| 2026-04-22 10:26 | 58.03319 | -14.53923 | 32495 ft | 500 kts | 293° |
| 2026-04-22 10:27 | 58.05815 | -14.66213 | 32496 ft | 501 kts | 293° |
| 2026-04-22 10:27 | 58.08299 | -14.78521 | 32498 ft | 501 kts | 293° |
| 2026-04-22 10:28 | 58.10759 | -14.90790 | 32499 ft | 502 kts | 293° |
| 2026-04-22 10:28 | 58.13230 | -15.03186 | 32500 ft | 503 kts | 293° |
| 2026-04-22 10:29 | 58.15693 | -15.15616 | 32511 ft | 503 kts | 293° |
| 2026-04-22 10:29 | 58.18127 | -15.27982 | 32495 ft | 504 kts | 293° |
| 2026-04-22 10:30 | 58.20566 | -15.40454 | 32489 ft | 504 kts | 293° |
| 2026-04-22 10:30 | 58.22996 | -15.52954 | 32501 ft | 505 kts | 293° |
| 2026-04-22 10:31 | 58.25417 | -15.65492 | 32498 ft | 505 kts | 293° |
| 2026-04-22 10:31 | 58.27811 | -15.77970 | 32494 ft | 506 kts | 293° |
| 2026-04-22 10:32 | 58.30211 | -15.90562 | 32498 ft | 506 kts | 293° |
| 2026-04-22 10:32 | 58.32596 | -16.03153 | 32506 ft | 506 kts | 293° |
| 2026-04-22 10:33 | 58.34977 | -16.15804 | 32506 ft | 507 kts | 293° |
| 2026-04-22 10:33 | 58.37331 | -16.28397 | 32507 ft | 507 kts | 293° |
| 2026-04-22 10:34 | 58.39687 | -16.41086 | 32504 ft | 508 kts | 293° |
| 2026-04-22 10:34 | 58.42035 | -16.53816 | 32506 ft | 508 kts | 293° |
| 2026-04-22 10:35 | 58.44361 | -16.66512 | 32506 ft | 508 kts | 293° |
| 2026-04-22 10:35 | 58.46672 | -16.79211 | 32512 ft | 509 kts | 293° |
| 2026-04-22 10:36 | 58.48990 | -16.92036 | 32510 ft | 509 kts | 293° |
| 2026-04-22 10:36 | 58.51291 | -17.04850 | 32512 ft | 509 kts | 292° |
| 2026-04-22 10:37 | 58.54711 | -17.24065 | 32513 ft | 509 kts | 292° |
| 2026-04-22 10:38 | 58.56987 | -17.36967 | 32507 ft | 510 kts | 292° |
| 2026-04-22 10:38 | 58.59236 | -17.49797 | 32510 ft | 510 kts | 292° |
| 2026-04-22 10:39 | 58.61486 | -17.62732 | 32508 ft | 510 kts | 292° |
| 2026-04-22 10:39 | 58.63711 | -17.75608 | 32513 ft | 511 kts | 292° |
| 2026-04-22 10:40 | 58.65932 | -17.88552 | 32513 ft | 511 kts | 292° |
| 2026-04-22 10:40 | 58.68144 | -18.01539 | 32515 ft | 511 kts | 292° |
| 2026-04-22 10:41 | 58.70341 | -18.14531 | 32514 ft | 511 kts | 292° |
| 2026-04-22 10:41 | 58.72529 | -18.27565 | 32516 ft | 511 kts | 292° |
| 2026-04-22 10:42 | 58.74695 | -18.40560 | 32514 ft | 511 kts | 292° |
| 2026-04-22 10:42 | 58.76860 | -18.53641 | 32514 ft | 511 kts | 292° |
| 2026-04-22 10:43 | 58.78994 | -18.66637 | 32517 ft | 512 kts | 292° |
| 2026-04-22 10:43 | 58.81131 | -18.79745 | 32526 ft | 512 kts | 292° |
| 2026-04-22 10:44 | 58.83259 | -18.92892 | 32524 ft | 512 kts | 292° |
| 2026-04-22 10:44 | 58.85362 | -19.05986 | 32525 ft | 512 kts | 292° |
| 2026-04-22 10:45 | 58.87470 | -19.19211 | 32521 ft | 512 kts | 292° |
| 2026-04-22 10:45 | 58.89539 | -19.32295 | 32521 ft | 512 kts | 292° |
| 2026-04-22 10:46 | 58.91617 | -19.45527 | 32524 ft | 512 kts | 292° |
| 2026-04-22 10:46 | 58.93671 | -19.58717 | 32527 ft | 512 kts | 292° |
| 2026-04-22 10:47 | 58.95711 | -19.71915 | 32520 ft | 512 kts | 291° |
| 2026-04-22 10:47 | 58.97738 | -19.85127 | 32529 ft | 512 kts | 291° |
| 2026-04-22 10:48 | 58.99761 | -19.98408 | 32524 ft | 512 kts | 291° |
| 2026-04-22 10:48 | 59.01694 | -20.11632 | 32526 ft | 512 kts | 290° |
| 2026-04-22 10:49 | 59.03553 | -20.25010 | 32526 ft | 512 kts | 290° |
| 2026-04-22 10:49 | 59.05391 | -20.38347 | 32537 ft | 512 kts | 290° |
| 2026-04-22 10:50 | 59.07241 | -20.51787 | 32527 ft | 513 kts | 290° |
| 2026-04-22 10:50 | 59.09067 | -20.65118 | 32543 ft | 513 kts | 290° |
| 2026-04-22 10:51 | 59.10892 | -20.78542 | 32537 ft | 513 kts | 290° |
| 2026-04-22 10:51 | 59.12698 | -20.91954 | 32544 ft | 512 kts | 290° |
| 2026-04-22 10:52 | 59.14495 | -21.05415 | 32535 ft | 512 kts | 289° |
| 2026-04-22 10:52 | 59.16263 | -21.18784 | 32543 ft | 512 kts | 289° |
| 2026-04-22 10:53 | 59.18025 | -21.32216 | 32541 ft | 512 kts | 289° |
| 2026-04-22 10:53 | 59.19773 | -21.45669 | 32554 ft | 512 kts | 289° |
| 2026-04-22 10:54 | 59.21518 | -21.59216 | 32542 ft | 512 kts | 289° |
| 2026-04-22 10:54 | 59.23230 | -21.72631 | 32540 ft | 512 kts | 289° |
| 2026-04-22 10:55 | 59.24943 | -21.86177 | 32543 ft | 511 kts | 288° |
| 2026-04-22 10:55 | 59.26637 | -21.99691 | 32548 ft | 511 kts | 288° |
| 2026-04-22 10:56 | 59.28304 | -22.13120 | 32543 ft | 511 kts | 288° |
| 2026-04-22 10:56 | 59.29971 | -22.26674 | 32551 ft | 511 kts | 288° |
| 2026-04-22 10:57 | 59.31621 | -22.40222 | 32547 ft | 511 kts | 288° |
| 2026-04-22 10:57 | 59.33253 | -22.53743 | 32559 ft | 511 kts | 288° |
| 2026-04-22 10:58 | 59.34869 | -22.67260 | 32550 ft | 511 kts | 287° |
| 2026-04-22 10:58 | 59.36479 | -22.80861 | 32553 ft | 511 kts | 287° |
| 2026-04-22 10:59 | 59.38072 | -22.94447 | 32550 ft | 511 kts | 287° |
| 2026-04-22 10:59 | 59.39642 | -23.07975 | 32551 ft | 511 kts | 287° |
| 2026-04-22 11:00 | 59.41208 | -23.21595 | 32554 ft | 510 kts | 287° |
| 2026-04-22 11:00 | 59.42753 | -23.35171 | 32570 ft | 510 kts | 286° |
| 2026-04-22 11:01 | 59.44287 | -23.48793 | 32558 ft | 510 kts | 286° |
| 2026-04-22 11:01 | 59.45805 | -23.62410 | 32559 ft | 510 kts | 286° |
| 2026-04-22 11:02 | 59.47310 | -23.76043 | 32553 ft | 510 kts | 286° |
| 2026-04-22 11:02 | 59.48797 | -23.89656 | 32561 ft | 509 kts | 285° |
| 2026-04-22 11:03 | 59.50266 | -24.03243 | 32558 ft | 509 kts | 285° |
| 2026-04-22 11:03 | 59.51728 | -24.16917 | 32566 ft | 509 kts | 285° |
| 2026-04-22 11:04 | 59.53177 | -24.30599 | 32554 ft | 509 kts | 285° |
| 2026-04-22 11:04 | 59.54600 | -24.44192 | 32570 ft | 509 kts | 285° |
| 2026-04-22 11:05 | 59.56018 | -24.57889 | 32574 ft | 508 kts | 284° |
| 2026-04-22 11:05 | 59.57417 | -24.71548 | 32575 ft | 508 kts | 284° |
| 2026-04-22 11:05 | 59.58104 | -24.78301 | 32926 ft | 504 kts | 283° |
| 2026-04-22 11:06 | 59.58787 | -24.85074 | 32713 ft | 498 kts | 283° |
| 2026-04-22 11:06 | 59.60120 | -24.98394 | 32596 ft | 493 kts | 283° |
| 2026-04-22 11:07 | 59.61440 | -25.11698 | 32580 ft | 493 kts | 283° |
| 2026-04-22 11:07 | 59.62744 | -25.24985 | 32578 ft | 494 kts | 283° |
| 2026-04-22 11:08 | 59.64032 | -25.38271 | 32579 ft | 494 kts | 283° |
| 2026-04-22 11:08 | 59.65316 | -25.51665 | 32580 ft | 495 kts | 283° |
| 2026-04-22 11:09 | 59.66588 | -25.65082 | 32583 ft | 496 kts | 283° |
| 2026-04-22 11:09 | 59.67842 | -25.78474 | 32586 ft | 496 kts | 283° |
| 2026-04-22 11:10 | 59.69087 | -25.91922 | 32581 ft | 497 kts | 283° |
| 2026-04-22 11:10 | 59.70118 | -26.03183 | 32585 ft | 497 kts | 283° |
| 2026-04-22 11:11 | 59.71333 | -26.16592 | 32581 ft | 497 kts | 283° |
| 2026-04-22 11:11 | 59.72539 | -26.30063 | 32584 ft | 497 kts | 283° |
| 2026-04-22 11:12 | 59.73733 | -26.43576 | 32593 ft | 497 kts | 283° |
| 2026-04-22 11:12 | 59.74914 | -26.57104 | 32591 ft | 497 kts | 283° |
| 2026-04-22 11:13 | 59.76076 | -26.70574 | 32585 ft | 497 kts | 283° |
| 2026-04-22 11:13 | 59.77228 | -26.84099 | 32598 ft | 497 kts | 283° |
| 2026-04-22 11:14 | 59.78362 | -26.97595 | 32581 ft | 497 kts | 283° |
| 2026-04-22 11:14 | 59.79487 | -27.11148 | 32592 ft | 497 kts | 283° |
| 2026-04-22 11:15 | 59.80601 | -27.24748 | 32597 ft | 497 kts | 283° |
| 2026-04-22 11:15 | 59.81691 | -27.38240 | 32595 ft | 497 kts | 283° |
| 2026-04-22 11:16 | 59.82777 | -27.51855 | 32592 ft | 498 kts | 283° |
| 2026-04-22 11:16 | 59.83847 | -27.65458 | 32599 ft | 498 kts | 283° |
| 2026-04-22 11:17 | 59.84903 | -27.79080 | 32594 ft | 498 kts | 283° |
| 2026-04-22 11:17 | 59.85944 | -27.92685 | 32596 ft | 497 kts | 283° |
| 2026-04-22 11:18 | 59.86970 | -28.06295 | 32598 ft | 497 kts | 283° |
| 2026-04-22 11:18 | 59.87978 | -28.19853 | 32599 ft | 497 kts | 283° |
| 2026-04-22 11:19 | 59.88978 | -28.33502 | 32600 ft | 497 kts | 283° |
| 2026-04-22 11:19 | 59.89964 | -28.47157 | 32593 ft | 497 kts | 283° |
| 2026-04-22 11:20 | 59.90934 | -28.60802 | 32603 ft | 497 kts | 283° |
| 2026-04-22 11:20 | 59.91885 | -28.74372 | 32598 ft | 496 kts | 283° |
| 2026-04-22 11:21 | 59.92827 | -28.88040 | 32597 ft | 496 kts | 283° |
| 2026-04-22 11:21 | 59.93752 | -29.01661 | 32598 ft | 496 kts | 283° |
| 2026-04-22 11:22 | 59.94666 | -29.15336 | 32600 ft | 496 kts | 283° |
| 2026-04-22 11:22 | 59.95559 | -29.28909 | 32607 ft | 496 kts | 283° |
| 2026-04-22 11:23 | 59.96443 | -29.42569 | 32611 ft | 495 kts | 283° |
| 2026-04-22 11:23 | 59.97306 | -29.56146 | 32608 ft | 495 kts | 282° |
| 2026-04-22 11:24 | 59.98161 | -29.69808 | 32609 ft | 494 kts | 282° |
| 2026-04-22 11:24 | 59.98997 | -29.83385 | 32606 ft | 494 kts | 282° |
| 2026-04-22 11:25 | 59.99822 | -29.97000 | 32608 ft | 493 kts | 282° |
| 2026-04-22 11:25 | 60.00512 | -30.10665 | 32610 ft | 494 kts | 279° |
| 2026-04-22 11:26 | 60.00967 | -30.24307 | 32610 ft | 494 kts | 278° |
| 2026-04-22 11:26 | 60.01399 | -30.38046 | 32610 ft | 493 kts | 278° |
| 2026-04-22 11:27 | 60.01849 | -30.51701 | 32610 ft | 492 kts | 278° |
| 2026-04-22 11:27 | 60.02306 | -30.65395 | 32605 ft | 492 kts | 278° |
| 2026-04-22 11:28 | 60.02749 | -30.78991 | 32609 ft | 491 kts | 278° |
| 2026-04-22 11:28 | 60.03178 | -30.92599 | 32607 ft | 490 kts | 278° |
| 2026-04-22 11:29 | 60.03590 | -31.06200 | 32610 ft | 490 kts | 278° |
| 2026-04-22 11:29 | 60.03988 | -31.19802 | 32610 ft | 489 kts | 278° |
| 2026-04-22 11:30 | 60.04372 | -31.33386 | 32609 ft | 488 kts | 278° |
| 2026-04-22 11:30 | 60.04739 | -31.46881 | 32611 ft | 488 kts | 277° |
| 2026-04-22 11:31 | 60.05095 | -31.60480 | 32611 ft | 487 kts | 277° |
| 2026-04-22 11:31 | 60.05436 | -31.74045 | 32611 ft | 487 kts | 277° |
| 2026-04-22 11:32 | 60.05761 | -31.87528 | 32608 ft | 487 kts | 277° |
| 2026-04-22 11:32 | 60.06073 | -32.01034 | 32607 ft | 486 kts | 277° |
| 2026-04-22 11:33 | 60.06373 | -32.14609 | 32611 ft | 486 kts | 276° |
| 2026-04-22 11:33 | 60.06656 | -32.28060 | 32610 ft | 485 kts | 276° |
| 2026-04-22 11:34 | 60.06927 | -32.41609 | 32617 ft | 485 kts | 276° |
| 2026-04-22 11:34 | 60.07182 | -32.55020 | 32614 ft | 485 kts | 276° |
| 2026-04-22 11:35 | 60.07425 | -32.68545 | 32606 ft | 484 kts | 276° |
| 2026-04-22 11:35 | 60.07654 | -32.82006 | 32609 ft | 484 kts | 275° |
| 2026-04-22 11:36 | 60.07868 | -32.95443 | 32605 ft | 483 kts | 275° |
| 2026-04-22 11:36 | 60.08069 | -33.08867 | 32604 ft | 483 kts | 275° |
| 2026-04-22 11:37 | 60.08257 | -33.22371 | 32604 ft | 483 kts | 275° |
| 2026-04-22 11:37 | 60.08430 | -33.35774 | 32606 ft | 483 kts | 275° |
| 2026-04-22 11:38 | 60.08590 | -33.49239 | 32605 ft | 483 kts | 274° |
| 2026-04-22 11:38 | 60.08804 | -33.69413 | 32604 ft | 483 kts | 274° |
| 2026-04-22 11:39 | 60.08929 | -33.82805 | 32605 ft | 483 kts | 274° |
| 2026-04-22 11:39 | 60.09041 | -33.96266 | 32605 ft | 483 kts | 274° |
| 2026-04-22 11:40 | 60.09140 | -34.09729 | 32604 ft | 483 kts | 274° |
| 2026-04-22 11:40 | 60.09224 | -34.23193 | 32604 ft | 483 kts | 273° |
| 2026-04-22 11:41 | 60.09295 | -34.36593 | 32603 ft | 482 kts | 273° |
| 2026-04-22 11:41 | 60.09353 | -34.49973 | 32602 ft | 483 kts | 273° |
| 2026-04-22 11:42 | 60.09397 | -34.63445 | 32600 ft | 483 kts | 273° |
| 2026-04-22 11:42 | 60.09427 | -34.76943 | 32597 ft | 483 kts | 272° |
| 2026-04-22 11:43 | 60.09444 | -34.90433 | 32611 ft | 483 kts | 272° |
| 2026-04-22 11:43 | 60.09447 | -35.03842 | 32596 ft | 484 kts | 272° |
| 2026-04-22 11:44 | 60.09436 | -35.17353 | 32594 ft | 484 kts | 272° |
| 2026-04-22 11:44 | 60.09411 | -35.30885 | 32603 ft | 485 kts | 272° |
| 2026-04-22 11:45 | 60.09373 | -35.44346 | 32592 ft | 485 kts | 272° |
| 2026-04-22 11:45 | 60.09320 | -35.57954 | 32598 ft | 485 kts | 272° |
| 2026-04-22 11:46 | 60.09255 | -35.71413 | 32600 ft | 486 kts | 272° |
| 2026-04-22 11:46 | 60.09175 | -35.85011 | 32590 ft | 486 kts | 272° |
| 2026-04-22 11:47 | 60.09081 | -35.98502 | 32594 ft | 487 kts | 272° |
| 2026-04-22 11:47 | 60.08973 | -36.12099 | 32588 ft | 487 kts | 272° |
| 2026-04-22 11:48 | 60.08851 | -36.25708 | 32591 ft | 488 kts | 272° |
| 2026-04-22 11:48 | 60.08716 | -36.39255 | 32589 ft | 489 kts | 272° |
| 2026-04-22 11:49 | 60.08565 | -36.52910 | 32588 ft | 490 kts | 272° |
| 2026-04-22 11:49 | 60.08401 | -36.66515 | 32591 ft | 490 kts | 272° |
| 2026-04-22 11:50 | 60.08223 | -36.80197 | 32588 ft | 491 kts | 272° |
| 2026-04-22 11:50 | 60.08029 | -36.93871 | 32589 ft | 492 kts | 272° |
| 2026-04-22 11:51 | 60.07821 | -37.07628 | 32586 ft | 493 kts | 272° |
| 2026-04-22 11:51 | 60.07599 | -37.21311 | 32589 ft | 494 kts | 272° |
| 2026-04-22 11:52 | 60.07362 | -37.35070 | 32588 ft | 494 kts | 271° |
| 2026-04-22 11:52 | 60.07110 | -37.48857 | 32585 ft | 495 kts | 271° |
| 2026-04-22 11:53 | 60.06845 | -37.62566 | 32584 ft | 495 kts | 271° |
| 2026-04-22 11:53 | 60.06564 | -37.76383 | 32585 ft | 495 kts | 271° |
| 2026-04-22 11:54 | 60.06319 | -37.87880 | 32578 ft | 496 kts | 271° |
| 2026-04-22 11:54 | 60.05960 | -38.03928 | 32580 ft | 496 kts | 271° |
| 2026-04-22 11:55 | 60.05689 | -38.15495 | 32586 ft | 496 kts | 271° |
| 2026-04-22 11:55 | 60.05355 | -38.29234 | 32576 ft | 496 kts | 271° |
| 2026-04-22 11:56 | 60.05003 | -38.43062 | 32585 ft | 497 kts | 271° |
| 2026-04-22 11:56 | 60.04640 | -38.56798 | 32588 ft | 497 kts | 271° |
| 2026-04-22 11:57 | 60.04259 | -38.70643 | 32584 ft | 497 kts | 270° |
| 2026-04-22 11:57 | 60.03866 | -38.84392 | 32577 ft | 496 kts | 270° |
| 2026-04-22 11:58 | 60.03458 | -38.98202 | 32579 ft | 496 kts | 270° |
| 2026-04-22 11:58 | 60.03036 | -39.11952 | 32577 ft | 496 kts | 270° |
| 2026-04-22 11:59 | 60.02602 | -39.25658 | 32575 ft | 495 kts | 270° |
| 2026-04-22 11:59 | 60.02152 | -39.39428 | 32576 ft | 495 kts | 269° |
| 2026-04-22 12:00 | 60.01690 | -39.53103 | 32577 ft | 494 kts | 269° |
| 2026-04-22 12:00 | 60.01212 | -39.66825 | 32577 ft | 494 kts | 269° |
| 2026-04-22 12:01 | 60.00725 | -39.80448 | 32578 ft | 493 kts | 269° |
| 2026-04-22 12:01 | 60.00220 | -39.94182 | 32578 ft | 493 kts | 269° |
| 2026-04-22 12:02 | 60.00187 | -40.07738 | 32569 ft | 488 kts | 277° |
| 2026-04-22 12:02 | 60.00718 | -40.21194 | 32570 ft | 487 kts | 277° |
| 2026-04-22 12:03 | 60.01248 | -40.34746 | 32570 ft | 487 kts | 277° |
| 2026-04-22 12:03 | 60.01734 | -40.48218 | 32572 ft | 487 kts | 276° |
| 2026-04-22 12:04 | 60.02191 | -40.61757 | 32571 ft | 486 kts | 276° |
| 2026-04-22 12:04 | 60.02627 | -40.75168 | 32569 ft | 486 kts | 276° |
| 2026-04-22 12:05 | 60.03054 | -40.88708 | 32563 ft | 486 kts | 276° |
| 2026-04-22 12:05 | 60.03465 | -41.02147 | 32564 ft | 485 kts | 276° |
| 2026-04-22 12:06 | 60.03861 | -41.15544 | 32564 ft | 484 kts | 275° |
| 2026-04-22 12:06 | 60.04246 | -41.29010 | 32563 ft | 484 kts | 275° |
| 2026-04-22 12:07 | 60.04617 | -41.42473 | 32559 ft | 484 kts | 275° |
| 2026-04-22 12:07 | 60.04972 | -41.55849 | 32559 ft | 483 kts | 275° |
| 2026-04-22 12:08 | 60.05315 | -41.69300 | 32560 ft | 483 kts | 275° |
| 2026-04-22 12:08 | 60.05645 | -41.82762 | 32561 ft | 483 kts | 274° |
| 2026-04-22 12:09 | 60.05958 | -41.96128 | 32556 ft | 483 kts | 274° |
| 2026-04-22 12:09 | 60.06260 | -42.09583 | 32557 ft | 483 kts | 274° |
| 2026-04-22 12:10 | 60.06549 | -42.23055 | 32558 ft | 483 kts | 274° |
| 2026-04-22 12:10 | 60.06822 | -42.36414 | 32560 ft | 483 kts | 274° |
| 2026-04-22 12:11 | 60.07084 | -42.49905 | 32559 ft | 482 kts | 273° |
| 2026-04-22 12:11 | 60.07329 | -42.63266 | 32560 ft | 482 kts | 273° |
| 2026-04-22 12:12 | 60.07563 | -42.76697 | 32562 ft | 482 kts | 272° |
| 2026-04-22 12:12 | 60.07783 | -42.90145 | 32559 ft | 482 kts | 272° |
| 2026-04-22 12:13 | 60.07987 | -43.03459 | 32561 ft | 481 kts | 272° |
| 2026-04-22 12:13 | 60.08179 | -43.16876 | 32557 ft | 481 kts | 272° |
| 2026-04-22 12:14 | 60.08358 | -43.30279 | 32558 ft | 480 kts | 272° |
| 2026-04-22 12:14 | 60.08521 | -43.43584 | 32556 ft | 478 kts | 271° |
| 2026-04-22 12:15 | 60.08672 | -43.56915 | 32556 ft | 477 kts | 271° |
| 2026-04-22 12:15 | 60.08808 | -43.70118 | 32547 ft | 476 kts | 271° |
| 2026-04-22 12:16 | 60.08932 | -43.83390 | 32538 ft | 475 kts | 270° |
| 2026-04-22 12:16 | 60.09041 | -43.96627 | 32534 ft | 473 kts | 270° |
| 2026-04-22 12:17 | 60.09137 | -44.09720 | 32529 ft | 471 kts | 270° |
| 2026-04-22 12:17 | 60.09220 | -44.22879 | 32523 ft | 474 kts | 270° |
| 2026-04-22 12:18 | 60.09290 | -44.36060 | 32515 ft | 479 kts | 269° |
| 2026-04-22 12:18 | 60.09348 | -44.49447 | 32497 ft | 478 kts | 269° |
| 2026-04-22 12:19 | 60.09392 | -44.62815 | 32477 ft | 481 kts | 269° |
| 2026-04-22 12:19 | 60.09424 | -44.76197 | 32477 ft | 480 kts | 269° |
| 2026-04-22 12:20 | 60.09441 | -44.89516 | 32476 ft | 480 kts | 268° |
| 2026-04-22 12:20 | 60.09445 | -45.02912 | 32462 ft | 480 kts | 268° |
| 2026-04-22 12:21 | 60.09435 | -45.16255 | 32458 ft | 479 kts | 268° |
| 2026-04-22 12:21 | 60.09412 | -45.29654 | 32451 ft | 478 kts | 268° |
| 2026-04-22 12:22 | 60.09376 | -45.42918 | 32460 ft | 480 kts | 268° |
| 2026-04-22 12:22 | 60.09326 | -45.56263 | 32441 ft | 477 kts | 267° |
| 2026-04-22 12:23 | 60.09262 | -45.69594 | 32453 ft | 480 kts | 267° |
| 2026-04-22 12:23 | 60.09187 | -45.82894 | 32445 ft | 478 kts | 266° |
| 2026-04-22 12:24 | 60.09097 | -45.96140 | 32428 ft | 475 kts | 266° |
| 2026-04-22 12:24 | 60.08993 | -46.09455 | 32433 ft | 477 kts | 266° |
| 2026-04-22 12:25 | 60.08877 | -46.22707 | 32445 ft | 477 kts | 266° |
| 2026-04-22 12:25 | 60.08748 | -46.35997 | 32424 ft | 477 kts | 265° |
| 2026-04-22 12:26 | 60.08605 | -46.49316 | 32426 ft | 477 kts | 265° |
| 2026-04-22 12:26 | 60.08449 | -46.62580 | 32422 ft | 475 kts | 265° |
| 2026-04-22 12:27 | 60.08280 | -46.75797 | 32418 ft | 477 kts | 265° |
| 2026-04-22 12:27 | 60.08097 | -46.89080 | 32411 ft | 476 kts | 264° |
| 2026-04-22 12:28 | 60.07902 | -47.02330 | 32407 ft | 475 kts | 264° |
| 2026-04-22 12:28 | 60.07693 | -47.15573 | 32404 ft | 476 kts | 264° |
| 2026-04-22 12:29 | 60.07470 | -47.28823 | 32392 ft | 475 kts | 264° |
| 2026-04-22 12:29 | 60.07239 | -47.41918 | 32384 ft | 468 kts | 264° |
| 2026-04-22 12:30 | 60.06867 | -47.61467 | 32384 ft | 468 kts | 263° |
| 2026-04-22 12:31 | 60.06603 | -47.74455 | 32376 ft | 468 kts | 263° |
| 2026-04-22 12:31 | 60.06325 | -47.87530 | 32365 ft | 469 kts | 263° |
| 2026-04-22 12:32 | 60.06036 | -48.00533 | 32353 ft | 469 kts | 263° |
| 2026-04-22 12:32 | 60.05578 | -48.20096 | 32344 ft | 470 kts | 262° |
| 2026-04-22 12:33 | 60.05257 | -48.33093 | 32340 ft | 469 kts | 262° |
| 2026-04-22 12:33 | 60.04921 | -48.46199 | 32329 ft | 468 kts | 262° |
| 2026-04-22 12:34 | 60.04576 | -48.59133 | 32320 ft | 468 kts | 262° |
| 2026-04-22 12:34 | 60.04217 | -48.72146 | 32316 ft | 467 kts | 261° |
| 2026-04-22 12:35 | 60.03847 | -48.85068 | 32308 ft | 466 kts | 261° |
| 2026-04-22 12:35 | 60.03465 | -48.97966 | 32303 ft | 465 kts | 261° |
| 2026-04-22 12:36 | 60.03069 | -49.10902 | 32300 ft | 465 kts | 261° |
| 2026-04-22 12:36 | 60.02662 | -49.23801 | 32293 ft | 464 kts | 261° |
| 2026-04-22 12:37 | 60.02244 | -49.36641 | 32287 ft | 464 kts | 260° |
| 2026-04-22 12:37 | 60.01812 | -49.49529 | 32290 ft | 464 kts | 260° |
| 2026-04-22 12:38 | 60.01370 | -49.62339 | 32272 ft | 463 kts | 259° |
| 2026-04-22 12:38 | 60.00913 | -49.75239 | 32270 ft | 463 kts | 259° |
| 2026-04-22 12:39 | 60.00234 | -49.94499 | 32261 ft | 464 kts | 262° |
| 2026-04-22 12:40 | 60.00584 | -50.07481 | 32287 ft | 476 kts | 272° |
| 2026-04-22 12:40 | 60.01160 | -50.14052 | 32566 ft | 478 kts | 273° |
| 2026-04-22 12:40 | 60.01750 | -50.20501 | 33012 ft | 475 kts | 273° |
| 2026-04-22 12:40 | 60.02344 | -50.26972 | 33525 ft | 470 kts | 272° |
| 2026-04-22 12:41 | 60.02929 | -50.33426 | 34026 ft | 465 kts | 272° |
| 2026-04-22 12:41 | 60.03489 | -50.39730 | 34270 ft | 466 kts | 272° |
| 2026-04-22 12:41 | 60.04045 | -50.46130 | 34250 ft | 466 kts | 272° |
| 2026-04-22 12:42 | 60.04955 | -50.56743 | 34228 ft | 464 kts | 271° |
| 2026-04-22 12:42 | 60.06206 | -50.71572 | 34231 ft | 463 kts | 271° |
| 2026-04-22 12:43 | 60.07089 | -50.82178 | 34237 ft | 463 kts | 271° |
| 2026-04-22 12:43 | 60.08137 | -50.94873 | 34232 ft | 463 kts | 271° |
| 2026-04-22 12:44 | 60.09177 | -51.07623 | 34228 ft | 464 kts | 270° |
| 2026-04-22 12:44 | 60.10208 | -51.20411 | 34229 ft | 464 kts | 270° |
| 2026-04-22 12:45 | 60.11221 | -51.33146 | 34226 ft | 465 kts | 270° |
| 2026-04-22 12:45 | 60.12230 | -51.45986 | 34225 ft | 465 kts | 270° |
| 2026-04-22 12:46 | 60.13226 | -51.58836 | 34228 ft | 465 kts | 270° |
| 2026-04-22 12:46 | 60.14206 | -51.71636 | 34230 ft | 465 kts | 269° |
| 2026-04-22 12:47 | 60.15176 | -51.84484 | 34229 ft | 466 kts | 269° |
| 2026-04-22 12:47 | 60.16131 | -51.97290 | 34234 ft | 466 kts | 269° |
| 2026-04-22 12:48 | 60.17077 | -52.10161 | 34236 ft | 465 kts | 269° |
| 2026-04-22 12:48 | 60.18012 | -52.23053 | 34240 ft | 465 kts | 269° |
| 2026-04-22 12:49 | 60.18929 | -52.35876 | 34233 ft | 464 kts | 268° |
| 2026-04-22 12:49 | 60.19835 | -52.48738 | 34229 ft | 464 kts | 268° |
| 2026-04-22 12:50 | 60.20730 | -52.61611 | 34232 ft | 463 kts | 268° |
| 2026-04-22 12:50 | 60.21603 | -52.74363 | 34232 ft | 462 kts | 268° |
| 2026-04-22 12:51 | 60.22468 | -52.87181 | 34237 ft | 461 kts | 267° |
| 2026-04-22 12:51 | 60.23319 | -52.99986 | 34233 ft | 461 kts | 267° |
| 2026-04-22 12:52 | 60.24152 | -53.12721 | 34233 ft | 460 kts | 267° |
| 2026-04-22 12:52 | 60.24977 | -53.25511 | 34236 ft | 460 kts | 266° |
| 2026-04-22 12:53 | 60.25784 | -53.38213 | 34230 ft | 459 kts | 266° |
| 2026-04-22 12:53 | 60.26582 | -53.50981 | 34231 ft | 458 kts | 266° |
| 2026-04-22 12:54 | 60.27366 | -53.63722 | 34226 ft | 458 kts | 266° |
| 2026-04-22 12:54 | 60.28133 | -53.76391 | 34221 ft | 457 kts | 265° |
| 2026-04-22 12:55 | 60.28891 | -53.89128 | 34235 ft | 457 kts | 265° |
| 2026-04-22 12:55 | 60.29632 | -54.01791 | 34227 ft | 456 kts | 265° |
| 2026-04-22 12:56 | 60.30366 | -54.14531 | 34228 ft | 456 kts | 265° |
| 2026-04-22 12:56 | 60.31081 | -54.27162 | 34226 ft | 456 kts | 264° |
| 2026-04-22 12:57 | 60.31791 | -54.39927 | 34225 ft | 455 kts | 264° |
| 2026-04-22 12:57 | 60.32482 | -54.52559 | 34222 ft | 454 kts | 264° |
| 2026-04-22 12:58 | 60.33165 | -54.65270 | 34220 ft | 454 kts | 264° |
| 2026-04-22 12:58 | 60.33829 | -54.77872 | 34220 ft | 453 kts | 263° |
| 2026-04-22 12:59 | 60.34484 | -54.90520 | 34224 ft | 452 kts | 263° |
| 2026-04-22 12:59 | 60.35125 | -55.03164 | 34218 ft | 451 kts | 263° |
| 2026-04-22 13:00 | 60.35751 | -55.15716 | 34215 ft | 450 kts | 263° |
| 2026-04-22 13:00 | 60.36366 | -55.28318 | 34224 ft | 449 kts | 262° |
| 2026-04-22 13:01 | 60.36967 | -55.40880 | 34223 ft | 449 kts | 262° |
| 2026-04-22 13:01 | 60.37554 | -55.53383 | 34222 ft | 448 kts | 262° |
| 2026-04-22 13:02 | 60.38129 | -55.65908 | 34218 ft | 448 kts | 262° |
| 2026-04-22 13:02 | 60.38694 | -55.78467 | 34223 ft | 448 kts | 261° |
| 2026-04-22 13:03 | 60.39250 | -55.91087 | 34208 ft | 448 kts | 261° |
| 2026-04-22 13:03 | 60.39789 | -56.03583 | 34210 ft | 448 kts | 261° |
| 2026-04-22 13:04 | 60.40320 | -56.16182 | 34211 ft | 448 kts | 261° |
| 2026-04-22 13:04 | 60.40834 | -56.28694 | 34215 ft | 449 kts | 261° |
| 2026-04-22 13:05 | 60.41342 | -56.41336 | 34216 ft | 450 kts | 260° |
| 2026-04-22 13:05 | 60.41839 | -56.54007 | 34211 ft | 451 kts | 260° |
| 2026-04-22 13:06 | 60.42323 | -56.66611 | 34211 ft | 451 kts | 260° |
| 2026-04-22 13:06 | 60.42798 | -56.79312 | 34208 ft | 452 kts | 260° |
| 2026-04-22 13:07 | 60.43257 | -56.91943 | 34204 ft | 453 kts | 260° |
| 2026-04-22 13:07 | 60.43709 | -57.04703 | 34206 ft | 453 kts | 260° |
| 2026-04-22 13:08 | 60.44150 | -57.17487 | 34208 ft | 454 kts | 260° |
| 2026-04-22 13:08 | 60.44575 | -57.30186 | 34196 ft | 456 kts | 260° |
| 2026-04-22 13:09 | 60.44993 | -57.43035 | 34201 ft | 457 kts | 260° |
| 2026-04-22 13:09 | 60.45399 | -57.55869 | 34204 ft | 458 kts | 260° |
| 2026-04-22 13:10 | 60.45794 | -57.68765 | 34208 ft | 459 kts | 260° |
| 2026-04-22 13:10 | 60.46176 | -57.81653 | 34208 ft | 460 kts | 260° |
| 2026-04-22 13:11 | 60.46551 | -57.94626 | 34211 ft | 461 kts | 260° |
| 2026-04-22 13:11 | 60.46841 | -58.07564 | 34200 ft | 458 kts | 258° |
| 2026-04-22 13:12 | 60.46890 | -58.20487 | 34200 ft | 456 kts | 257° |
| 2026-04-22 13:12 | 60.46894 | -58.33315 | 34208 ft | 457 kts | 257° |
| 2026-04-22 13:13 | 60.46914 | -58.46237 | 34203 ft | 458 kts | 257° |
| 2026-04-22 13:13 | 60.46942 | -58.59135 | 34207 ft | 459 kts | 257° |
| 2026-04-22 13:14 | 60.46963 | -58.72072 | 34209 ft | 459 kts | 257° |
| 2026-04-22 13:14 | 60.46972 | -58.85050 | 34218 ft | 460 kts | 257° |
| 2026-04-22 13:15 | 60.46967 | -58.97951 | 34219 ft | 460 kts | 257° |
| 2026-04-22 13:15 | 60.46948 | -59.10943 | 34217 ft | 460 kts | 257° |
| 2026-04-22 13:16 | 60.46918 | -59.23953 | 34223 ft | 461 kts | 257° |
| 2026-04-22 13:16 | 60.46875 | -59.36954 | 34225 ft | 461 kts | 257° |
| 2026-04-22 13:17 | 60.46819 | -59.49894 | 34219 ft | 461 kts | 257° |
| 2026-04-22 13:17 | 60.46751 | -59.62894 | 34231 ft | 462 kts | 257° |
| 2026-04-22 13:18 | 60.46669 | -59.75929 | 34241 ft | 462 kts | 257° |
| 2026-04-22 13:18 | 60.46574 | -59.88987 | 34244 ft | 463 kts | 257° |
| 2026-04-22 13:19 | 60.46466 | -60.02059 | 34249 ft | 464 kts | 257° |
| 2026-04-22 13:19 | 60.46346 | -60.15070 | 34257 ft | 465 kts | 257° |
| 2026-04-22 13:20 | 60.46213 | -60.28198 | 34256 ft | 466 kts | 257° |
| 2026-04-22 13:20 | 60.46066 | -60.41354 | 34258 ft | 467 kts | 257° |
| 2026-04-22 13:21 | 60.45907 | -60.54471 | 34263 ft | 468 kts | 257° |
| 2026-04-22 13:21 | 60.45734 | -60.67680 | 34262 ft | 469 kts | 257° |
| 2026-04-22 13:22 | 60.45548 | -60.80895 | 34268 ft | 469 kts | 257° |
| 2026-04-22 13:22 | 60.45348 | -60.94119 | 34274 ft | 470 kts | 257° |
| 2026-04-22 13:23 | 60.45135 | -61.07356 | 34279 ft | 470 kts | 257° |
| 2026-04-22 13:23 | 60.44909 | -61.20601 | 34276 ft | 470 kts | 257° |
| 2026-04-22 13:24 | 60.44670 | -61.33800 | 34281 ft | 471 kts | 257° |
| 2026-04-22 13:24 | 60.44418 | -61.47053 | 34291 ft | 471 kts | 258° |
| 2026-04-22 13:25 | 60.44151 | -61.60324 | 34279 ft | 472 kts | 258° |
| 2026-04-22 13:25 | 60.43871 | -61.73616 | 34286 ft | 472 kts | 258° |
| 2026-04-22 13:26 | 60.43579 | -61.86836 | 34292 ft | 472 kts | 258° |
| 2026-04-22 13:26 | 60.43273 | -62.00127 | 34294 ft | 473 kts | 258° |
| 2026-04-22 13:27 | 60.42952 | -62.13457 | 34298 ft | 473 kts | 258° |
| 2026-04-22 13:27 | 60.42619 | -62.26704 | 34297 ft | 474 kts | 258° |
| 2026-04-22 13:28 | 60.42271 | -62.40052 | 34300 ft | 475 kts | 258° |
| 2026-04-22 13:28 | 60.41908 | -62.53456 | 34304 ft | 476 kts | 258° |
| 2026-04-22 13:29 | 60.41533 | -62.66827 | 34308 ft | 477 kts | 258° |
| 2026-04-22 13:29 | 60.41143 | -62.80223 | 34307 ft | 477 kts | 258° |
| 2026-04-22 13:30 | 60.40742 | -62.93561 | 34306 ft | 478 kts | 258° |
| 2026-04-22 13:30 | 60.40324 | -63.06997 | 34316 ft | 478 kts | 259° |
| 2026-04-22 13:31 | 60.39966 | -63.18174 | 34315 ft | 479 kts | 259° |
| 2026-04-22 13:31 | 60.39523 | -63.31625 | 34313 ft | 479 kts | 259° |
| 2026-04-22 13:32 | 60.39064 | -63.45114 | 34316 ft | 479 kts | 259° |
| 2026-04-22 13:32 | 60.38594 | -63.58551 | 34313 ft | 479 kts | 259° |
| 2026-04-22 13:33 | 60.38113 | -63.71890 | 34316 ft | 479 kts | 259° |
| 2026-04-22 13:33 | 60.37616 | -63.85326 | 34318 ft | 479 kts | 259° |
| 2026-04-22 13:34 | 60.37104 | -63.98758 | 34323 ft | 479 kts | 259° |
| 2026-04-22 13:34 | 60.36580 | -64.12173 | 34323 ft | 479 kts | 259° |
| 2026-04-22 13:35 | 60.36045 | -64.25528 | 34321 ft | 478 kts | 259° |
| 2026-04-22 13:35 | 60.35493 | -64.38952 | 34322 ft | 478 kts | 259° |
| 2026-04-22 13:36 | 60.34929 | -64.52338 | 34324 ft | 477 kts | 259° |
| 2026-04-22 13:36 | 60.34355 | -64.65601 | 34317 ft | 477 kts | 259° |
| 2026-04-22 13:37 | 60.33767 | -64.78959 | 34322 ft | 477 kts | 259° |
| 2026-04-22 13:37 | 60.33164 | -64.92296 | 34321 ft | 477 kts | 259° |
| 2026-04-22 13:38 | 60.32549 | -65.05608 | 34324 ft | 476 kts | 259° |
| 2026-04-22 13:38 | 60.31602 | -65.25568 | 34327 ft | 475 kts | 259° |
| 2026-04-22 13:39 | 60.30959 | -65.38751 | 34328 ft | 475 kts | 259° |
| 2026-04-22 13:39 | 60.30298 | -65.52038 | 34327 ft | 475 kts | 259° |
| 2026-04-22 13:40 | 60.29625 | -65.65296 | 34325 ft | 475 kts | 259° |
| 2026-04-22 13:40 | 60.28937 | -65.78571 | 34327 ft | 475 kts | 259° |
| 2026-04-22 13:41 | 60.28241 | -65.91753 | 34319 ft | 476 kts | 258° |
| 2026-04-22 13:41 | 60.27527 | -66.05020 | 34319 ft | 476 kts | 258° |
| 2026-04-22 13:42 | 60.26797 | -66.18320 | 34318 ft | 477 kts | 258° |
| 2026-04-22 13:42 | 60.26060 | -66.31520 | 34328 ft | 477 kts | 258° |
| 2026-04-22 13:43 | 60.25304 | -66.44810 | 34324 ft | 477 kts | 258° |
| 2026-04-22 13:43 | 60.24534 | -66.58098 | 34321 ft | 478 kts | 258° |
| 2026-04-22 13:44 | 60.23750 | -66.71403 | 34317 ft | 478 kts | 258° |
| 2026-04-22 13:44 | 60.22956 | -66.84642 | 34313 ft | 478 kts | 258° |
| 2026-04-22 13:45 | 60.22148 | -66.97893 | 34316 ft | 478 kts | 258° |
| 2026-04-22 13:45 | 60.21324 | -67.11190 | 34322 ft | 479 kts | 258° |
| 2026-04-22 13:46 | 60.20484 | -67.24504 | 34320 ft | 479 kts | 258° |
| 2026-04-22 13:46 | 60.19633 | -67.37787 | 34320 ft | 480 kts | 258° |
| 2026-04-22 13:47 | 60.18768 | -67.51067 | 34319 ft | 480 kts | 258° |
| 2026-04-22 13:47 | 60.17890 | -67.64337 | 34317 ft | 481 kts | 258° |
| 2026-04-22 13:48 | 60.16991 | -67.77723 | 34318 ft | 481 kts | 258° |
| 2026-04-22 13:48 | 60.16083 | -67.91020 | 34320 ft | 482 kts | 258° |
| 2026-04-22 13:49 | 60.15161 | -68.04338 | 34318 ft | 482 kts | 258° |
| 2026-04-22 13:49 | 60.14226 | -68.17637 | 34318 ft | 482 kts | 258° |
| 2026-04-22 13:50 | 60.13274 | -68.30972 | 34322 ft | 483 kts | 258° |
| 2026-04-22 13:50 | 60.12307 | -68.44332 | 34317 ft | 483 kts | 258° |
| 2026-04-22 13:51 | 60.11330 | -68.57628 | 34316 ft | 483 kts | 258° |
| 2026-04-22 13:51 | 60.10338 | -68.70939 | 34318 ft | 483 kts | 258° |
| 2026-04-22 13:52 | 60.09332 | -68.84256 | 34315 ft | 483 kts | 258° |
| 2026-04-22 13:52 | 60.08311 | -68.97595 | 34313 ft | 483 kts | 258° |
| 2026-04-22 13:53 | 60.07277 | -69.10900 | 34315 ft | 483 kts | 258° |
| 2026-04-22 13:53 | 60.06237 | -69.24124 | 34314 ft | 483 kts | 258° |
| 2026-04-22 13:54 | 60.05178 | -69.37405 | 34305 ft | 483 kts | 258° |
| 2026-04-22 13:54 | 60.04105 | -69.50682 | 34297 ft | 484 kts | 258° |
| 2026-04-22 13:55 | 60.03018 | -69.63962 | 34287 ft | 484 kts | 258° |
| 2026-04-22 13:55 | 60.01918 | -69.77234 | 34280 ft | 484 kts | 258° |
| 2026-04-22 13:56 | 60.00807 | -69.90493 | 34280 ft | 484 kts | 258° |
| 2026-04-22 13:56 | 59.99700 | -70.03729 | 34276 ft | 484 kts | 259° |
| 2026-04-22 13:57 | 59.98850 | -70.17094 | 34280 ft | 485 kts | 261° |
| 2026-04-22 13:57 | 59.98093 | -70.30495 | 34284 ft | 485 kts | 261° |
| 2026-04-22 13:58 | 59.97302 | -70.43796 | 34291 ft | 485 kts | 261° |
| 2026-04-22 13:58 | 59.96458 | -70.57222 | 34300 ft | 485 kts | 261° |
| 2026-04-22 13:59 | 59.95596 | -70.70512 | 34296 ft | 485 kts | 261° |
| 2026-04-22 13:59 | 59.94713 | -70.83911 | 34298 ft | 485 kts | 261° |
| 2026-04-22 14:00 | 59.93824 | -70.97207 | 34299 ft | 486 kts | 261° |
| 2026-04-22 14:00 | 59.92917 | -71.10598 | 34296 ft | 486 kts | 260° |
| 2026-04-22 14:01 | 59.91999 | -71.23920 | 34302 ft | 486 kts | 260° |
| 2026-04-22 14:01 | 59.91069 | -71.37236 | 34294 ft | 486 kts | 260° |
| 2026-04-22 14:02 | 59.90124 | -71.50557 | 34289 ft | 486 kts | 260° |
| 2026-04-22 14:02 | 59.89165 | -71.63877 | 34291 ft | 486 kts | 260° |
| 2026-04-22 14:03 | 59.88194 | -71.77171 | 34291 ft | 486 kts | 260° |
| 2026-04-22 14:03 | 59.87207 | -71.90484 | 34280 ft | 486 kts | 260° |
| 2026-04-22 14:04 | 59.86204 | -72.03839 | 34284 ft | 486 kts | 260° |
| 2026-04-22 14:04 | 59.85191 | -72.17125 | 34295 ft | 486 kts | 260° |
| 2026-04-22 14:05 | 59.84170 | -72.30347 | 34285 ft | 486 kts | 259° |
| 2026-04-22 14:06 | 59.82607 | -72.50234 | 34277 ft | 485 kts | 259° |
| 2026-04-22 14:06 | 59.81547 | -72.63511 | 34275 ft | 485 kts | 259° |
| 2026-04-22 14:07 | 59.80479 | -72.76702 | 34271 ft | 485 kts | 259° |
| 2026-04-22 14:07 | 59.79392 | -72.89944 | 34266 ft | 485 kts | 259° |
| 2026-04-22 14:08 | 59.78294 | -73.03178 | 34264 ft | 485 kts | 259° |
| 2026-04-22 14:08 | 59.77188 | -73.16315 | 34258 ft | 485 kts | 259° |
| 2026-04-22 14:09 | 59.76063 | -73.29528 | 34256 ft | 485 kts | 259° |
| 2026-04-22 14:09 | 59.74920 | -73.42773 | 34255 ft | 485 kts | 259° |
| 2026-04-22 14:10 | 59.73775 | -73.55902 | 34245 ft | 485 kts | 259° |
| 2026-04-22 14:10 | 59.72614 | -73.69027 | 34247 ft | 484 kts | 259° |
| 2026-04-22 14:11 | 59.71442 | -73.82149 | 34246 ft | 484 kts | 258° |
| 2026-04-22 14:11 | 59.70255 | -73.95264 | 34239 ft | 484 kts | 258° |
| 2026-04-22 14:12 | 59.69053 | -74.08396 | 34233 ft | 484 kts | 258° |
| 2026-04-22 14:12 | 59.67835 | -74.21543 | 34233 ft | 484 kts | 258° |
| 2026-04-22 14:13 | 59.66614 | -74.34570 | 34223 ft | 484 kts | 258° |
| 2026-04-22 14:13 | 59.65374 | -74.47678 | 34226 ft | 485 kts | 258° |
| 2026-04-22 14:14 | 59.64118 | -74.60799 | 34225 ft | 485 kts | 258° |
| 2026-04-22 14:14 | 59.62845 | -74.73928 | 34208 ft | 485 kts | 258° |
| 2026-04-22 14:15 | 59.61572 | -74.86927 | 34205 ft | 485 kts | 258° |
| 2026-04-22 14:15 | 59.60278 | -74.99999 | 34197 ft | 485 kts | 258° |
| 2026-04-22 14:16 | 59.58968 | -75.13088 | 34202 ft | 485 kts | 258° |
| 2026-04-22 14:16 | 59.57645 | -75.26161 | 34195 ft | 486 kts | 258° |
| 2026-04-22 14:17 | 59.56309 | -75.39230 | 34199 ft | 486 kts | 257° |
| 2026-04-22 14:17 | 59.54967 | -75.52228 | 34187 ft | 487 kts | 257° |
| 2026-04-22 14:18 | 59.53602 | -75.65310 | 34181 ft | 487 kts | 257° |
| 2026-04-22 14:18 | 59.52220 | -75.78402 | 34185 ft | 487 kts | 257° |
| 2026-04-22 14:19 | 59.50833 | -75.91417 | 34174 ft | 487 kts | 257° |
| 2026-04-22 14:19 | 59.49433 | -76.04425 | 34170 ft | 486 kts | 257° |
| 2026-04-22 14:20 | 59.47545 | -76.21762 | 34163 ft | 485 kts | 257° |
| 2026-04-22 14:20 | 59.46113 | -76.34761 | 34160 ft | 485 kts | 257° |
| 2026-04-22 14:21 | 59.43950 | -76.54164 | 34153 ft | 485 kts | 257° |
| 2026-04-22 14:22 | 59.41755 | -76.73560 | 34146 ft | 485 kts | 257° |
| 2026-04-22 14:23 | 59.39534 | -76.92914 | 34140 ft | 485 kts | 257° |
| 2026-04-22 14:23 | 59.38035 | -77.05821 | 34133 ft | 485 kts | 256° |
| 2026-04-22 14:24 | 59.36527 | -77.18685 | 34137 ft | 485 kts | 256° |
| 2026-04-22 14:24 | 59.34998 | -77.31605 | 34130 ft | 485 kts | 256° |
| 2026-04-22 14:25 | 59.33465 | -77.44448 | 34124 ft | 485 kts | 256° |
| 2026-04-22 14:25 | 59.31915 | -77.57310 | 34120 ft | 485 kts | 256° |
| 2026-04-22 14:26 | 59.30357 | -77.70123 | 34113 ft | 484 kts | 256° |
| 2026-04-22 14:26 | 59.28787 | -77.82917 | 34103 ft | 483 kts | 256° |
| 2026-04-22 14:27 | 59.27204 | -77.95712 | 34100 ft | 483 kts | 256° |
| 2026-04-22 14:27 | 59.25610 | -78.08473 | 34100 ft | 483 kts | 256° |
| 2026-04-22 14:28 | 59.24006 | -78.21209 | 34097 ft | 483 kts | 256° |
| 2026-04-22 14:28 | 59.22392 | -78.33906 | 34094 ft | 483 kts | 256° |
| 2026-04-22 14:29 | 59.20756 | -78.46671 | 34095 ft | 484 kts | 256° |
| 2026-04-22 14:29 | 59.19112 | -78.59387 | 34090 ft | 484 kts | 256° |
| 2026-04-22 14:30 | 59.17459 | -78.72073 | 34086 ft | 482 kts | 256° |
| 2026-04-22 14:30 | 59.15802 | -78.84669 | 34084 ft | 480 kts | 256° |
| 2026-04-22 14:31 | 59.14126 | -78.97320 | 34094 ft | 480 kts | 255° |
| 2026-04-22 14:31 | 59.12455 | -79.09818 | 34088 ft | 479 kts | 255° |
| 2026-04-22 14:32 | 59.10761 | -79.22394 | 34085 ft | 480 kts | 255° |
| 2026-04-22 14:32 | 59.09047 | -79.35011 | 34091 ft | 481 kts | 255° |
| 2026-04-22 14:33 | 59.07328 | -79.47563 | 34083 ft | 482 kts | 255° |
| 2026-04-22 14:33 | 59.05585 | -79.60193 | 34088 ft | 485 kts | 255° |
| 2026-04-22 14:34 | 59.03811 | -79.72940 | 34081 ft | 486 kts | 255° |
| 2026-04-22 14:34 | 59.02044 | -79.85553 | 34079 ft | 485 kts | 255° |
| 2026-04-22 14:35 | 59.00225 | -79.98198 | 34084 ft | 486 kts | 252° |
| 2026-04-22 14:35 | 58.97634 | -80.10281 | 34088 ft | 486 kts | 245° |
| 2026-04-22 14:36 | 58.94740 | -80.22047 | 34075 ft | 483 kts | 245° |
| 2026-04-22 14:36 | 58.91875 | -80.33714 | 34076 ft | 478 kts | 245° |
| 2026-04-22 14:37 | 58.89040 | -80.45312 | 34082 ft | 477 kts | 245° |
| 2026-04-22 14:37 | 58.86208 | -80.56894 | 34077 ft | 477 kts | 245° |
| 2026-04-22 14:38 | 58.83353 | -80.68513 | 34082 ft | 478 kts | 245° |
| 2026-04-22 14:38 | 58.80497 | -80.80070 | 34075 ft | 479 kts | 245° |
| 2026-04-22 14:39 | 58.77616 | -80.91661 | 34077 ft | 480 kts | 245° |
| 2026-04-22 14:39 | 58.74703 | -81.03321 | 34084 ft | 481 kts | 245° |
| 2026-04-22 14:40 | 58.70322 | -81.20738 | 34084 ft | 482 kts | 245° |
| 2026-04-22 14:40 | 58.67406 | -81.32255 | 34081 ft | 481 kts | 245° |
| 2026-04-22 14:41 | 58.64456 | -81.43845 | 34063 ft | 481 kts | 245° |
| 2026-04-22 14:41 | 58.61522 | -81.55317 | 34056 ft | 481 kts | 245° |
| 2026-04-22 14:42 | 58.58554 | -81.66857 | 34071 ft | 480 kts | 245° |
| 2026-04-22 14:42 | 58.55603 | -81.78276 | 34068 ft | 479 kts | 245° |
| 2026-04-22 14:43 | 58.52650 | -81.89645 | 34070 ft | 478 kts | 244° |
| 2026-04-22 14:43 | 58.49663 | -82.01082 | 34067 ft | 478 kts | 244° |
| 2026-04-22 14:44 | 58.46692 | -82.12403 | 34067 ft | 478 kts | 244° |
| 2026-04-22 14:44 | 58.43710 | -82.23711 | 34068 ft | 478 kts | 244° |
| 2026-04-22 14:45 | 58.40695 | -82.35082 | 34070 ft | 478 kts | 244° |
| 2026-04-22 14:45 | 58.37686 | -82.46378 | 34072 ft | 478 kts | 244° |
| 2026-04-22 14:46 | 58.34677 | -82.57614 | 34069 ft | 478 kts | 244° |
| 2026-04-22 14:46 | 58.31638 | -82.68908 | 34067 ft | 478 kts | 244° |
| 2026-04-22 14:47 | 58.28608 | -82.80111 | 34071 ft | 478 kts | 244° |
| 2026-04-22 14:47 | 58.25565 | -82.91307 | 34070 ft | 477 kts | 244° |
| 2026-04-22 14:48 | 58.22496 | -83.02543 | 34067 ft | 477 kts | 244° |
| 2026-04-22 14:48 | 58.19443 | -83.13667 | 34076 ft | 477 kts | 244° |
| 2026-04-22 14:49 | 58.16366 | -83.24821 | 34075 ft | 477 kts | 244° |
| 2026-04-22 14:49 | 58.13295 | -83.35902 | 34072 ft | 476 kts | 244° |
| 2026-04-22 14:50 | 58.10214 | -83.46962 | 34075 ft | 476 kts | 244° |
| 2026-04-22 14:50 | 58.07110 | -83.58054 | 34079 ft | 476 kts | 244° |
| 2026-04-22 14:51 | 58.04018 | -83.69048 | 34076 ft | 475 kts | 244° |
| 2026-04-22 14:51 | 58.00900 | -83.80082 | 34079 ft | 475 kts | 244° |
| 2026-04-22 14:52 | 57.97787 | -83.91048 | 34085 ft | 475 kts | 244° |
| 2026-04-22 14:52 | 57.94668 | -84.01979 | 34085 ft | 474 kts | 244° |
| 2026-04-22 14:53 | 57.91532 | -84.12921 | 34087 ft | 474 kts | 244° |
| 2026-04-22 14:53 | 57.88384 | -84.23851 | 34084 ft | 474 kts | 244° |
| 2026-04-22 14:54 | 57.85241 | -84.34713 | 34098 ft | 474 kts | 244° |
| 2026-04-22 14:54 | 57.82088 | -84.45559 | 34092 ft | 474 kts | 244° |
| 2026-04-22 14:55 | 57.78933 | -84.56361 | 34098 ft | 474 kts | 244° |
| 2026-04-22 14:55 | 57.75753 | -84.67197 | 34103 ft | 473 kts | 244° |
| 2026-04-22 14:56 | 57.72564 | -84.78013 | 34111 ft | 473 kts | 244° |
| 2026-04-22 14:56 | 57.69394 | -84.88716 | 34113 ft | 473 kts | 244° |
| 2026-04-22 14:57 | 57.66187 | -84.99493 | 34120 ft | 472 kts | 244° |
| 2026-04-22 14:57 | 57.62992 | -85.10180 | 34120 ft | 472 kts | 244° |
| 2026-04-22 14:58 | 57.59795 | -85.20828 | 34123 ft | 471 kts | 244° |
| 2026-04-22 14:58 | 57.56588 | -85.31458 | 34128 ft | 470 kts | 244° |
| 2026-04-22 14:59 | 57.53367 | -85.42087 | 34130 ft | 470 kts | 244° |
| 2026-04-22 14:59 | 57.50147 | -85.52663 | 34136 ft | 469 kts | 244° |
| 2026-04-22 15:00 | 57.46932 | -85.63178 | 34135 ft | 469 kts | 244° |
| 2026-04-22 15:00 | 57.43707 | -85.73679 | 34143 ft | 469 kts | 244° |
| 2026-04-22 15:01 | 57.40455 | -85.84218 | 34149 ft | 469 kts | 244° |
| 2026-04-22 15:01 | 57.37218 | -85.94663 | 34155 ft | 468 kts | 244° |
| 2026-04-22 15:02 | 57.33964 | -86.05113 | 34150 ft | 468 kts | 244° |
| 2026-04-22 15:02 | 57.30712 | -86.15516 | 34147 ft | 468 kts | 245° |
| 2026-04-22 15:03 | 57.27981 | -86.24214 | 34159 ft | 468 kts | 245° |
| 2026-04-22 15:03 | 57.24718 | -86.34565 | 34167 ft | 467 kts | 245° |
| 2026-04-22 15:04 | 57.21427 | -86.44961 | 34171 ft | 467 kts | 245° |
| 2026-04-22 15:04 | 57.18154 | -86.55255 | 34175 ft | 466 kts | 245° |
| 2026-04-22 15:05 | 57.14877 | -86.65514 | 34182 ft | 466 kts | 245° |
| 2026-04-22 15:05 | 57.11567 | -86.75835 | 34188 ft | 466 kts | 245° |
| 2026-04-22 15:06 | 57.08262 | -86.86095 | 34187 ft | 466 kts | 245° |
| 2026-04-22 15:06 | 57.04955 | -86.96315 | 34186 ft | 465 kts | 245° |
| 2026-04-22 15:07 | 57.01645 | -87.06502 | 34196 ft | 465 kts | 245° |
| 2026-04-22 15:07 | 56.98333 | -87.16652 | 34195 ft | 465 kts | 245° |
| 2026-04-22 15:08 | 56.94997 | -87.26830 | 34201 ft | 464 kts | 245° |
| 2026-04-22 15:08 | 56.91670 | -87.36939 | 34205 ft | 464 kts | 245° |
| 2026-04-22 15:09 | 56.88333 | -87.47038 | 34212 ft | 464 kts | 245° |
| 2026-04-22 15:09 | 56.84993 | -87.57100 | 34208 ft | 463 kts | 245° |
| 2026-04-22 15:10 | 56.81626 | -87.67203 | 34209 ft | 463 kts | 245° |
| 2026-04-22 15:10 | 56.78278 | -87.77204 | 34218 ft | 462 kts | 245° |
| 2026-04-22 15:11 | 56.74932 | -87.87161 | 34215 ft | 462 kts | 245° |
| 2026-04-22 15:11 | 56.71557 | -87.97160 | 34223 ft | 461 kts | 245° |
| 2026-04-22 15:12 | 56.68201 | -88.07063 | 34229 ft | 461 kts | 245° |
| 2026-04-22 15:12 | 56.64833 | -88.16960 | 34231 ft | 461 kts | 245° |
| 2026-04-22 15:13 | 56.61446 | -88.26873 | 34229 ft | 460 kts | 245° |
| 2026-04-22 15:13 | 56.58076 | -88.36694 | 34233 ft | 460 kts | 245° |
| 2026-04-22 15:14 | 56.54678 | -88.46556 | 34236 ft | 459 kts | 245° |
| 2026-04-22 15:14 | 56.51289 | -88.56353 | 34241 ft | 458 kts | 245° |
| 2026-04-22 15:15 | 56.47920 | -88.66053 | 34239 ft | 457 kts | 245° |
| 2026-04-22 15:15 | 56.44515 | -88.75816 | 34243 ft | 456 kts | 245° |
| 2026-04-22 15:16 | 56.41135 | -88.85471 | 34249 ft | 456 kts | 245° |
| 2026-04-22 15:16 | 56.37745 | -88.95114 | 34245 ft | 455 kts | 245° |
| 2026-04-22 15:17 | 56.34361 | -89.04702 | 34247 ft | 454 kts | 245° |
| 2026-04-22 15:17 | 56.30967 | -89.14282 | 34260 ft | 453 kts | 245° |
| 2026-04-22 15:18 | 56.27560 | -89.23860 | 34257 ft | 453 kts | 245° |
| 2026-04-22 15:18 | 56.24154 | -89.33398 | 34256 ft | 452 kts | 245° |
| 2026-04-22 15:19 | 56.20766 | -89.42847 | 34251 ft | 451 kts | 245° |
| 2026-04-22 15:19 | 56.17355 | -89.52326 | 34257 ft | 450 kts | 245° |
| 2026-04-22 15:20 | 56.13956 | -89.61733 | 34256 ft | 450 kts | 245° |
| 2026-04-22 15:20 | 56.10557 | -89.71104 | 34255 ft | 449 kts | 245° |
| 2026-04-22 15:21 | 56.07145 | -89.80478 | 34254 ft | 448 kts | 245° |
| 2026-04-22 15:21 | 56.03748 | -89.89781 | 34259 ft | 447 kts | 245° |
| 2026-04-22 15:22 | 56.00357 | -89.99034 | 34257 ft | 445 kts | 246° |
| 2026-04-22 15:22 | 55.97260 | -90.08617 | 34568 ft | 442 kts | 249° |
| 2026-04-22 15:23 | 55.95781 | -90.13345 | 34916 ft | 440 kts | 249° |
| 2026-04-22 15:23 | 55.94282 | -90.18126 | 35214 ft | 439 kts | 249° |
| 2026-04-22 15:23 | 55.92786 | -90.22884 | 35483 ft | 439 kts | 249° |
| 2026-04-22 15:23 | 55.91301 | -90.27594 | 35733 ft | 439 kts | 249° |
| 2026-04-22 15:24 | 55.89797 | -90.32347 | 35994 ft | 439 kts | 249° |
| 2026-04-22 15:24 | 55.88286 | -90.37108 | 36174 ft | 440 kts | 249° |
| 2026-04-22 15:24 | 55.85254 | -90.46632 | 36245 ft | 440 kts | 249° |
| 2026-04-22 15:25 | 55.82252 | -90.56007 | 36259 ft | 436 kts | 249° |
| 2026-04-22 15:25 | 55.79240 | -90.65385 | 36261 ft | 434 kts | 249° |
| 2026-04-22 15:26 | 55.76264 | -90.74621 | 36262 ft | 432 kts | 249° |
| 2026-04-22 15:26 | 55.73272 | -90.83870 | 36271 ft | 431 kts | 249° |
| 2026-04-22 15:27 | 55.70278 | -90.93092 | 36266 ft | 430 kts | 249° |
| 2026-04-22 15:27 | 55.67294 | -91.02248 | 36270 ft | 430 kts | 249° |
| 2026-04-22 15:28 | 55.64287 | -91.11440 | 36261 ft | 430 kts | 249° |
| 2026-04-22 15:28 | 55.61295 | -91.20546 | 36258 ft | 430 kts | 249° |
| 2026-04-22 15:29 | 55.58278 | -91.29696 | 36260 ft | 429 kts | 249° |
| 2026-04-22 15:30 | 55.53756 | -91.43343 | 36264 ft | 428 kts | 249° |
| 2026-04-22 15:30 | 55.50747 | -91.52383 | 36260 ft | 427 kts | 249° |
| 2026-04-22 15:31 | 55.47728 | -91.61417 | 36256 ft | 426 kts | 249° |
| 2026-04-22 15:31 | 55.44718 | -91.70392 | 36254 ft | 426 kts | 249° |
| 2026-04-22 15:32 | 55.41711 | -91.79327 | 36251 ft | 425 kts | 249° |
| 2026-04-22 15:32 | 55.38692 | -91.88263 | 36251 ft | 424 kts | 249° |
| 2026-04-22 15:33 | 55.35670 | -91.97177 | 36250 ft | 424 kts | 249° |
| 2026-04-22 15:33 | 55.32637 | -92.06089 | 36249 ft | 423 kts | 249° |
| 2026-04-22 15:34 | 55.29615 | -92.14935 | 36246 ft | 423 kts | 249° |
| 2026-04-22 15:34 | 55.26603 | -92.23720 | 36261 ft | 422 kts | 249° |
| 2026-04-22 15:35 | 55.24072 | -92.31079 | 36255 ft | 422 kts | 249° |
| 2026-04-22 15:35 | 55.20528 | -92.41346 | 36250 ft | 421 kts | 249° |
| 2026-04-22 15:36 | 55.17485 | -92.50127 | 36248 ft | 421 kts | 249° |
| 2026-04-22 15:36 | 55.14463 | -92.58818 | 36246 ft | 420 kts | 249° |
| 2026-04-22 15:37 | 55.11417 | -92.67547 | 36242 ft | 419 kts | 249° |
| 2026-04-22 15:37 | 55.08380 | -92.76216 | 36245 ft | 419 kts | 249° |
| 2026-04-22 15:38 | 55.05330 | -92.84896 | 36237 ft | 418 kts | 249° |
| 2026-04-22 15:38 | 55.00766 | -92.97832 | 36230 ft | 417 kts | 249° |
| 2026-04-22 15:39 | 54.97677 | -93.06358 | 36230 ft | 418 kts | 247° |
| 2026-04-22 15:39 | 54.94510 | -93.14795 | 36226 ft | 418 kts | 247° |
| 2026-04-22 15:40 | 54.91322 | -93.23256 | 36228 ft | 417 kts | 247° |
| 2026-04-22 15:40 | 54.88148 | -93.31686 | 36218 ft | 417 kts | 247° |
| 2026-04-22 15:41 | 54.84983 | -93.40079 | 36214 ft | 417 kts | 247° |
| 2026-04-22 15:41 | 54.81806 | -93.48483 | 36205 ft | 416 kts | 247° |
| 2026-04-22 15:42 | 54.78623 | -93.56877 | 36208 ft | 416 kts | 246° |
| 2026-04-22 15:42 | 54.75424 | -93.65281 | 36206 ft | 416 kts | 246° |
| 2026-04-22 15:43 | 54.72240 | -93.73619 | 36202 ft | 417 kts | 246° |
| 2026-04-22 15:43 | 54.69053 | -93.81934 | 36195 ft | 417 kts | 246° |
| 2026-04-22 15:44 | 54.65848 | -93.90269 | 36191 ft | 417 kts | 246° |
| 2026-04-22 15:44 | 54.62622 | -93.98631 | 36187 ft | 417 kts | 246° |
| 2026-04-22 15:45 | 54.59412 | -94.06923 | 36181 ft | 417 kts | 245° |
| 2026-04-22 15:45 | 54.56165 | -94.15281 | 36176 ft | 417 kts | 245° |
| 2026-04-22 15:46 | 54.52946 | -94.23542 | 36170 ft | 417 kts | 245° |
| 2026-04-22 15:46 | 54.49705 | -94.31830 | 36166 ft | 417 kts | 245° |
| 2026-04-22 15:47 | 54.46460 | -94.40101 | 36166 ft | 417 kts | 245° |
| 2026-04-22 15:47 | 54.43218 | -94.48339 | 36158 ft | 418 kts | 245° |
| 2026-04-22 15:48 | 54.39956 | -94.56597 | 36157 ft | 418 kts | 245° |
| 2026-04-22 15:48 | 54.36675 | -94.64877 | 36149 ft | 418 kts | 244° |
| 2026-04-22 15:49 | 54.33416 | -94.73075 | 36144 ft | 418 kts | 244° |
| 2026-04-22 15:49 | 54.30137 | -94.81296 | 36132 ft | 418 kts | 244° |
| 2026-04-22 15:50 | 54.27391 | -94.88159 | 36126 ft | 418 kts | 244° |
| 2026-04-22 15:50 | 54.24118 | -94.96315 | 36125 ft | 418 kts | 244° |
| 2026-04-22 15:51 | 54.20810 | -95.04532 | 36127 ft | 418 kts | 244° |
| 2026-04-22 15:51 | 54.17521 | -95.12676 | 36118 ft | 418 kts | 244° |
| 2026-04-22 15:52 | 54.14197 | -95.20878 | 36115 ft | 418 kts | 244° |
| 2026-04-22 15:52 | 54.10887 | -95.29020 | 36108 ft | 419 kts | 243° |
| 2026-04-22 15:53 | 54.07571 | -95.37150 | 36099 ft | 420 kts | 243° |
| 2026-04-22 15:53 | 54.04213 | -95.45354 | 36101 ft | 420 kts | 243° |
| 2026-04-22 15:54 | 54.00883 | -95.53465 | 36088 ft | 420 kts | 243° |
| 2026-04-22 15:54 | 53.97525 | -95.61617 | 36086 ft | 421 kts | 243° |
| 2026-04-22 15:55 | 53.94172 | -95.69732 | 36076 ft | 421 kts | 243° |
| 2026-04-22 15:55 | 53.90798 | -95.77868 | 36077 ft | 421 kts | 243° |
| 2026-04-22 15:56 | 53.87427 | -95.85973 | 36070 ft | 421 kts | 242° |
| 2026-04-22 15:56 | 53.84037 | -95.94097 | 36072 ft | 421 kts | 242° |
| 2026-04-22 15:57 | 53.80668 | -96.02146 | 36055 ft | 421 kts | 242° |
| 2026-04-22 15:57 | 53.77267 | -96.10243 | 36054 ft | 421 kts | 242° |
| 2026-04-22 15:58 | 53.73878 | -96.18287 | 36042 ft | 422 kts | 242° |
| 2026-04-22 15:58 | 53.70457 | -96.26379 | 36045 ft | 422 kts | 242° |
| 2026-04-22 15:59 | 53.67044 | -96.34429 | 36037 ft | 422 kts | 242° |
| 2026-04-22 15:59 | 53.63623 | -96.42471 | 36031 ft | 423 kts | 242° |
| 2026-04-22 16:00 | 53.60205 | -96.50480 | 36024 ft | 423 kts | 242° |
| 2026-04-22 16:00 | 53.56758 | -96.58530 | 36023 ft | 423 kts | 241° |
| 2026-04-22 16:01 | 53.53309 | -96.66561 | 36018 ft | 423 kts | 241° |
| 2026-04-22 16:01 | 53.49872 | -96.74539 | 36014 ft | 423 kts | 241° |
| 2026-04-22 16:02 | 53.46402 | -96.82566 | 36002 ft | 424 kts | 241° |
| 2026-04-22 16:02 | 53.42953 | -96.90521 | 35996 ft | 424 kts | 241° |
| 2026-04-22 16:03 | 53.39467 | -96.98534 | 35993 ft | 424 kts | 241° |
| 2026-04-22 16:03 | 53.35995 | -97.06492 | 35988 ft | 424 kts | 240° |
| 2026-04-22 16:04 | 53.32514 | -97.14442 | 35992 ft | 424 kts | 240° |
| 2026-04-22 16:04 | 53.29005 | -97.22434 | 35986 ft | 425 kts | 240° |
| 2026-04-22 16:05 | 53.25507 | -97.30377 | 35983 ft | 426 kts | 240° |
| 2026-04-22 16:05 | 53.21975 | -97.38368 | 35979 ft | 426 kts | 240° |
| 2026-04-22 16:06 | 53.18460 | -97.46299 | 35970 ft | 427 kts | 240° |
| 2026-04-22 16:06 | 53.14914 | -97.54271 | 35975 ft | 427 kts | 240° |
| 2026-04-22 16:07 | 53.11388 | -97.62174 | 35975 ft | 427 kts | 240° |
| 2026-04-22 16:07 | 53.07825 | -97.70137 | 35983 ft | 427 kts | 240° |
| 2026-04-22 16:08 | 53.04270 | -97.78057 | 35979 ft | 427 kts | 239° |
| 2026-04-22 16:08 | 53.00722 | -97.85934 | 35981 ft | 427 kts | 239° |
| 2026-04-22 16:09 | 52.97153 | -97.93837 | 35980 ft | 428 kts | 239° |
| 2026-04-22 16:09 | 52.93600 | -98.01677 | 35979 ft | 428 kts | 239° |
| 2026-04-22 16:10 | 52.90011 | -98.09575 | 35979 ft | 428 kts | 239° |
| 2026-04-22 16:10 | 52.86418 | -98.17455 | 35980 ft | 428 kts | 239° |
| 2026-04-22 16:11 | 52.82835 | -98.25288 | 35974 ft | 428 kts | 239° |
| 2026-04-22 16:11 | 52.79251 | -98.33101 | 35982 ft | 428 kts | 239° |
| 2026-04-22 16:12 | 52.75637 | -98.40954 | 35975 ft | 428 kts | 239° |
| 2026-04-22 16:12 | 52.72026 | -98.48776 | 35977 ft | 428 kts | 238° |
| 2026-04-22 16:13 | 52.68430 | -98.56543 | 35974 ft | 428 kts | 238° |
| 2026-04-22 16:13 | 52.64790 | -98.64379 | 35972 ft | 428 kts | 238° |
| 2026-04-22 16:14 | 52.61180 | -98.72128 | 35967 ft | 428 kts | 238° |
| 2026-04-22 16:14 | 52.57556 | -98.79883 | 35969 ft | 428 kts | 238° |
| 2026-04-22 16:15 | 52.53918 | -98.87645 | 35955 ft | 428 kts | 238° |
| 2026-04-22 16:15 | 52.50290 | -98.95363 | 35959 ft | 428 kts | 238° |
| 2026-04-22 16:16 | 52.46635 | -99.03112 | 35944 ft | 428 kts | 238° |
| 2026-04-22 16:16 | 52.43000 | -99.10797 | 35940 ft | 428 kts | 238° |
| 2026-04-22 16:17 | 52.39361 | -99.18466 | 35932 ft | 428 kts | 238° |
| 2026-04-22 16:17 | 52.35698 | -99.26165 | 35933 ft | 428 kts | 238° |
| 2026-04-22 16:18 | 52.32048 | -99.33811 | 35926 ft | 428 kts | 238° |
| 2026-04-22 16:18 | 52.28379 | -99.41474 | 35925 ft | 427 kts | 238° |
| 2026-04-22 16:19 | 52.24703 | -99.49130 | 35917 ft | 427 kts | 238° |
| 2026-04-22 16:19 | 52.21044 | -99.56727 | 35923 ft | 427 kts | 238° |
| 2026-04-22 16:20 | 52.17371 | -99.64331 | 35916 ft | 427 kts | 238° |
| 2026-04-22 16:20 | 52.13684 | -99.71941 | 35922 ft | 427 kts | 238° |
| 2026-04-22 16:21 | 52.10013 | -99.79497 | 35916 ft | 427 kts | 238° |
| 2026-04-22 16:21 | 52.06318 | -99.87081 | 35922 ft | 427 kts | 238° |
| 2026-04-22 16:22 | 52.00791 | -99.98383 | 35922 ft | 427 kts | 237° |
| 2026-04-22 16:23 | 51.94975 | -100.09461 | 35918 ft | 430 kts | 234° |
| 2026-04-22 16:23 | 51.90989 | -100.16637 | 35924 ft | 430 kts | 234° |
| 2026-04-22 16:24 | 51.85009 | -100.27475 | 35913 ft | 430 kts | 235° |
| 2026-04-22 16:25 | 51.81059 | -100.34660 | 35911 ft | 430 kts | 235° |
| 2026-04-22 16:25 | 51.75095 | -100.45486 | 35909 ft | 430 kts | 235° |
| 2026-04-22 16:26 | 51.71103 | -100.52706 | 35901 ft | 430 kts | 234° |
| 2026-04-22 16:26 | 51.67119 | -100.59890 | 35896 ft | 430 kts | 234° |
| 2026-04-22 16:27 | 51.63141 | -100.67040 | 35880 ft | 429 kts | 234° |
| 2026-04-22 16:27 | 51.59146 | -100.74201 | 35880 ft | 429 kts | 234° |
| 2026-04-22 16:28 | 51.55168 | -100.81314 | 35859 ft | 429 kts | 234° |
| 2026-04-22 16:28 | 51.51189 | -100.88408 | 35870 ft | 428 kts | 234° |
| 2026-04-22 16:29 | 51.47180 | -100.95534 | 35858 ft | 428 kts | 234° |
| 2026-04-22 16:29 | 51.43194 | -101.02599 | 35849 ft | 428 kts | 234° |
| 2026-04-22 16:30 | 51.39205 | -101.09649 | 35838 ft | 428 kts | 234° |
| 2026-04-22 16:30 | 51.35196 | -101.16717 | 35840 ft | 428 kts | 234° |
| 2026-04-22 16:31 | 51.31195 | -101.23750 | 35828 ft | 428 kts | 234° |
| 2026-04-22 16:31 | 51.27171 | -101.30803 | 35823 ft | 428 kts | 234° |
| 2026-04-22 16:32 | 51.23168 | -101.37798 | 35817 ft | 428 kts | 234° |
| 2026-04-22 16:32 | 51.19133 | -101.44832 | 35818 ft | 428 kts | 234° |
| 2026-04-22 16:33 | 51.15122 | -101.51806 | 35808 ft | 429 kts | 234° |
| 2026-04-22 16:33 | 51.11074 | -101.58822 | 35807 ft | 429 kts | 234° |
| 2026-04-22 16:34 | 51.07038 | -101.65798 | 35804 ft | 429 kts | 234° |
| 2026-04-22 16:34 | 51.02989 | -101.72777 | 35801 ft | 429 kts | 234° |
| 2026-04-22 16:35 | 50.99638 | -101.78539 | 35797 ft | 429 kts | 233° |
| 2026-04-22 16:35 | 50.95589 | -101.85483 | 35797 ft | 429 kts | 233° |
| 2026-04-22 16:36 | 50.91514 | -101.92452 | 35795 ft | 429 kts | 233° |
| 2026-04-22 16:36 | 50.87451 | -101.99383 | 35795 ft | 429 kts | 233° |
| 2026-04-22 16:37 | 50.83404 | -102.06266 | 35790 ft | 429 kts | 233° |
| 2026-04-22 16:37 | 50.79327 | -102.13181 | 35792 ft | 430 kts | 233° |
| 2026-04-22 16:38 | 50.75244 | -102.20089 | 35787 ft | 430 kts | 233° |
| 2026-04-22 16:38 | 50.71171 | -102.26960 | 35787 ft | 430 kts | 233° |
| 2026-04-22 16:39 | 50.67076 | -102.33850 | 35792 ft | 431 kts | 233° |
| 2026-04-22 16:39 | 50.62975 | -102.40731 | 35786 ft | 431 kts | 233° |
| 2026-04-22 16:40 | 50.58859 | -102.47616 | 35789 ft | 431 kts | 233° |
| 2026-04-22 16:41 | 50.52670 | -102.57937 | 35770 ft | 432 kts | 233° |
| 2026-04-22 16:41 | 50.48560 | -102.64768 | 35766 ft | 432 kts | 233° |
| 2026-04-22 16:42 | 50.44440 | -102.71595 | 35759 ft | 432 kts | 233° |
| 2026-04-22 16:42 | 50.40305 | -102.78430 | 35756 ft | 431 kts | 233° |
| 2026-04-22 16:43 | 50.36170 | -102.85245 | 35749 ft | 431 kts | 232° |
| 2026-04-22 16:43 | 50.32027 | -102.92055 | 35737 ft | 431 kts | 232° |
| 2026-04-22 16:44 | 50.27884 | -102.98849 | 35729 ft | 431 kts | 232° |
| 2026-04-22 16:44 | 50.23762 | -103.05588 | 35726 ft | 431 kts | 232° |
| 2026-04-22 16:45 | 50.19607 | -103.12364 | 35713 ft | 431 kts | 232° |
| 2026-04-22 16:45 | 50.15483 | -103.19070 | 35708 ft | 431 kts | 232° |
| 2026-04-22 16:46 | 50.11318 | -103.25827 | 35694 ft | 431 kts | 232° |
| 2026-04-22 16:46 | 50.07181 | -103.32520 | 35693 ft | 431 kts | 232° |
| 2026-04-22 16:47 | 50.03018 | -103.39236 | 35682 ft | 430 kts | 232° |
| 2026-04-22 16:47 | 49.98854 | -103.45935 | 35678 ft | 430 kts | 232° |
| 2026-04-22 16:48 | 49.94705 | -103.52595 | 35670 ft | 430 kts | 232° |
| 2026-04-22 16:48 | 49.90534 | -103.59270 | 35670 ft | 430 kts | 232° |
| 2026-04-22 16:49 | 49.86354 | -103.65944 | 35660 ft | 431 kts | 232° |
| 2026-04-22 16:49 | 49.82167 | -103.72611 | 35652 ft | 432 kts | 231° |
| 2026-04-22 16:50 | 49.78004 | -103.79220 | 35658 ft | 431 kts | 231° |
| 2026-04-22 16:50 | 49.73796 | -103.85885 | 35653 ft | 431 kts | 231° |
| 2026-04-22 16:51 | 49.69623 | -103.92476 | 35651 ft | 431 kts | 231° |
| 2026-04-22 16:51 | 49.65420 | -103.99099 | 35650 ft | 431 kts | 231° |
| 2026-04-22 16:52 | 49.61211 | -104.05712 | 35647 ft | 431 kts | 231° |
| 2026-04-22 16:52 | 49.57003 | -104.12308 | 35639 ft | 431 kts | 231° |
| 2026-04-22 16:53 | 49.52809 | -104.18863 | 35645 ft | 432 kts | 231° |
| 2026-04-22 16:53 | 49.48580 | -104.25457 | 35633 ft | 432 kts | 231° |
| 2026-04-22 16:54 | 49.44358 | -104.32022 | 35628 ft | 433 kts | 231° |
| 2026-04-22 16:54 | 49.40113 | -104.38607 | 35613 ft | 433 kts | 231° |
| 2026-04-22 16:55 | 49.35892 | -104.45137 | 35617 ft | 433 kts | 231° |
| 2026-04-22 16:55 | 49.31621 | -104.51727 | 35608 ft | 433 kts | 230° |
| 2026-04-22 16:56 | 49.27388 | -104.58242 | 35597 ft | 433 kts | 230° |
| 2026-04-22 16:56 | 49.23128 | -104.64780 | 35591 ft | 433 kts | 230° |
| 2026-04-22 16:57 | 49.18889 | -104.71272 | 35578 ft | 433 kts | 230° |
| 2026-04-22 16:57 | 49.14618 | -104.77794 | 35578 ft | 434 kts | 230° |
| 2026-04-22 16:58 | 49.11043 | -104.83243 | 35569 ft | 434 kts | 230° |
| 2026-04-22 16:58 | 49.06069 | -104.90803 | 35569 ft | 434 kts | 230° |
| 2026-04-22 16:59 | 49.01780 | -104.97305 | 35562 ft | 434 kts | 230° |
| 2026-04-22 16:59 | 48.97277 | -105.03435 | 35562 ft | 439 kts | 224° |
| 2026-04-22 17:00 | 48.92493 | -105.09253 | 35554 ft | 439 kts | 224° |
| 2026-04-22 17:00 | 48.85328 | -105.17966 | 35543 ft | 439 kts | 224° |
| 2026-04-22 17:01 | 48.80560 | -105.23771 | 35543 ft | 440 kts | 224° |
| 2026-04-22 17:01 | 48.75809 | -105.29549 | 35522 ft | 440 kts | 224° |
| 2026-04-22 17:02 | 48.71025 | -105.35353 | 35527 ft | 440 kts | 224° |
| 2026-04-22 17:02 | 48.66236 | -105.41148 | 35517 ft | 440 kts | 224° |
| 2026-04-22 17:03 | 48.61445 | -105.46929 | 35519 ft | 440 kts | 224° |
| 2026-04-22 17:03 | 48.56655 | -105.52695 | 35509 ft | 440 kts | 224° |
| 2026-04-22 17:04 | 48.51888 | -105.58422 | 35513 ft | 440 kts | 224° |
| 2026-04-22 17:04 | 48.47089 | -105.64168 | 35517 ft | 439 kts | 224° |
| 2026-04-22 17:05 | 48.42302 | -105.69887 | 35507 ft | 438 kts | 224° |
| 2026-04-22 17:05 | 48.37543 | -105.75560 | 35512 ft | 438 kts | 223° |
| 2026-04-22 17:06 | 48.32749 | -105.81259 | 35505 ft | 437 kts | 223° |
| 2026-04-22 17:06 | 48.27974 | -105.86924 | 35504 ft | 437 kts | 223° |
| 2026-04-22 17:07 | 48.23226 | -105.92542 | 35496 ft | 437 kts | 223° |
| 2026-04-22 17:07 | 48.18443 | -105.98188 | 35495 ft | 437 kts | 223° |
| 2026-04-22 17:08 | 48.13662 | -106.03817 | 35483 ft | 437 kts | 223° |
| 2026-04-22 17:08 | 48.08873 | -106.09443 | 35492 ft | 437 kts | 222° |
| 2026-04-22 17:09 | 48.04108 | -106.15025 | 35473 ft | 437 kts | 222° |
| 2026-04-22 17:09 | 47.99314 | -106.20630 | 35485 ft | 437 kts | 222° |
| 2026-04-22 17:10 | 47.94549 | -106.26185 | 35467 ft | 436 kts | 222° |
| 2026-04-22 17:10 | 47.89761 | -106.31772 | 35702 ft | 435 kts | 216° |
| 2026-04-22 17:11 | 47.87392 | -106.34525 | 35591 ft | 431 kts | 216° |
| 2026-04-22 17:11 | 47.85022 | -106.37269 | 35527 ft | 428 kts | 216° |
| 2026-04-22 17:11 | 47.80330 | -106.42693 | 35473 ft | 427 kts | 216° |
| 2026-04-22 17:12 | 47.75666 | -106.48075 | 35472 ft | 426 kts | 216° |
| 2026-04-22 17:12 | 47.70980 | -106.53473 | 35464 ft | 426 kts | 216° |
| 2026-04-22 17:13 | 47.66274 | -106.58883 | 35463 ft | 428 kts | 216° |
| 2026-04-22 17:13 | 47.61585 | -106.64262 | 35456 ft | 429 kts | 216° |
| 2026-04-22 17:14 | 47.56840 | -106.69690 | 35467 ft | 431 kts | 215° |
| 2026-04-22 17:14 | 47.52083 | -106.75120 | 35471 ft | 432 kts | 215° |
| 2026-04-22 17:15 | 47.47312 | -106.80555 | 35474 ft | 432 kts | 215° |
| 2026-04-22 17:15 | 47.42559 | -106.85956 | 35477 ft | 432 kts | 215° |
| 2026-04-22 17:16 | 47.40168 | -106.88664 | 35216 ft | 431 kts | 220° |
| 2026-04-22 17:16 | 47.37789 | -106.91358 | 35346 ft | 430 kts | 220° |
| 2026-04-22 17:16 | 47.33050 | -106.96720 | 35460 ft | 432 kts | 220° |
| 2026-04-22 17:17 | 47.28247 | -107.02143 | 35477 ft | 436 kts | 220° |
| 2026-04-22 17:17 | 47.23430 | -107.07565 | 35488 ft | 439 kts | 220° |
| 2026-04-22 17:18 | 47.18558 | -107.13036 | 35468 ft | 440 kts | 219° |
| 2026-04-22 17:18 | 47.13681 | -107.18498 | 35468 ft | 439 kts | 219° |
| 2026-04-22 17:19 | 47.04027 | -107.29274 | 35456 ft | 435 kts | 219° |
| 2026-04-22 17:20 | 46.94392 | -107.39981 | 35462 ft | 433 kts | 219° |
| 2026-04-22 17:21 | 46.87201 | -107.47940 | 35453 ft | 434 kts | 219° |
| 2026-04-22 17:22 | 46.79960 | -107.55927 | 35458 ft | 435 kts | 218° |
| 2026-04-22 17:23 | 46.72710 | -107.63894 | 35458 ft | 436 kts | 218° |
| 2026-04-22 17:23 | 46.66231 | -107.70993 | 35455 ft | 436 kts | 218° |
| 2026-04-22 17:24 | 46.60580 | -107.77165 | 35454 ft | 437 kts | 218° |
| 2026-04-22 17:24 | 46.56502 | -107.81609 | 35456 ft | 437 kts | 218° |
| 2026-04-22 17:25 | 46.51673 | -107.86862 | 35443 ft | 437 kts | 218° |
| 2026-04-22 17:25 | 46.46792 | -107.92157 | 35455 ft | 437 kts | 218° |
| 2026-04-22 17:26 | 46.41917 | -107.97435 | 35461 ft | 436 kts | 218° |
| 2026-04-22 17:26 | 46.37050 | -108.02692 | 35454 ft | 436 kts | 218° |
| 2026-04-22 17:27 | 46.32210 | -108.07909 | 35468 ft | 436 kts | 217° |
| 2026-04-22 17:27 | 46.27330 | -108.13155 | 35467 ft | 436 kts | 217° |
| 2026-04-22 17:28 | 46.22457 | -108.18383 | 35465 ft | 436 kts | 217° |
| 2026-04-22 17:28 | 46.17588 | -108.23595 | 35471 ft | 436 kts | 217° |
| 2026-04-22 17:29 | 46.12742 | -108.28771 | 35472 ft | 436 kts | 217° |
| 2026-04-22 17:29 | 46.07858 | -108.33975 | 35490 ft | 435 kts | 217° |
| 2026-04-22 17:30 | 46.02983 | -108.39159 | 35510 ft | 435 kts | 217° |
| 2026-04-22 17:30 | 45.98137 | -108.44300 | 35528 ft | 435 kts | 217° |
| 2026-04-22 17:31 | 45.93229 | -108.49495 | 35553 ft | 435 kts | 216° |
| 2026-04-22 17:31 | 45.88353 | -108.54646 | 35567 ft | 435 kts | 216° |
| 2026-04-22 17:32 | 45.83503 | -108.59760 | 35570 ft | 436 kts | 216° |
| 2026-04-22 17:32 | 45.78591 | -108.64881 | 35570 ft | 436 kts | 215° |
| 2026-04-22 17:33 | 45.73614 | -108.69885 | 35546 ft | 437 kts | 214° |
| 2026-04-22 17:33 | 45.68626 | -108.74863 | 35530 ft | 437 kts | 214° |
| 2026-04-22 17:34 | 45.63636 | -108.79850 | 35493 ft | 438 kts | 214° |
| 2026-04-22 17:34 | 45.58673 | -108.84812 | 35484 ft | 438 kts | 214° |
| 2026-04-22 17:35 | 45.53675 | -108.89803 | 35463 ft | 438 kts | 214° |
| 2026-04-22 17:35 | 45.48672 | -108.94787 | 35466 ft | 439 kts | 214° |
| 2026-04-22 17:36 | 45.43657 | -108.99772 | 35471 ft | 439 kts | 214° |
| 2026-04-22 17:36 | 45.38642 | -109.04745 | 35466 ft | 439 kts | 214° |
| 2026-04-22 17:37 | 45.33618 | -109.09721 | 35684 ft | 442 kts | 211° |
| 2026-04-22 17:37 | 45.28540 | -109.14731 | 35541 ft | 444 kts | 211° |
| 2026-04-22 17:38 | 45.23482 | -109.19713 | 35502 ft | 444 kts | 211° |
| 2026-04-22 17:38 | 45.18414 | -109.24697 | 35509 ft | 442 kts | 211° |
| 2026-04-22 17:39 | 45.13367 | -109.29649 | 35531 ft | 441 kts | 211° |
| 2026-04-22 17:40 | 45.05788 | -109.37061 | 35566 ft | 441 kts | 211° |
| 2026-04-22 17:40 | 45.00737 | -109.41986 | 35583 ft | 441 kts | 211° |
| 2026-04-22 17:41 | 44.95704 | -109.46885 | 35613 ft | 442 kts | 211° |
| 2026-04-22 17:41 | 44.90615 | -109.51827 | 35620 ft | 443 kts | 211° |
| 2026-04-22 17:42 | 44.85537 | -109.56750 | 35650 ft | 444 kts | 211° |
| 2026-04-22 17:42 | 44.80448 | -109.61671 | 35661 ft | 442 kts | 211° |
| 2026-04-22 17:43 | 44.75400 | -109.66543 | 35684 ft | 442 kts | 211° |
| 2026-04-22 17:43 | 44.70318 | -109.71437 | 35698 ft | 441 kts | 211° |
| 2026-04-22 17:44 | 44.65240 | -109.76314 | 35694 ft | 442 kts | 211° |
| 2026-04-22 17:44 | 44.60164 | -109.81180 | 35721 ft | 442 kts | 211° |
| 2026-04-22 17:45 | 44.55113 | -109.86012 | 35731 ft | 443 kts | 211° |
| 2026-04-22 17:45 | 44.50023 | -109.90866 | 35751 ft | 441 kts | 211° |
| 2026-04-22 17:46 | 44.44940 | -109.95712 | 35772 ft | 441 kts | 211° |
| 2026-04-22 17:46 | 44.39845 | -110.00557 | 35762 ft | 443 kts | 211° |
| 2026-04-22 17:47 | 44.34733 | -110.05405 | 35778 ft | 445 kts | 211° |
| 2026-04-22 17:47 | 44.29590 | -110.10269 | 35767 ft | 446 kts | 211° |
| 2026-04-22 17:48 | 44.25306 | -110.14317 | 35771 ft | 447 kts | 211° |
| 2026-04-22 17:48 | 44.19316 | -110.19963 | 35780 ft | 447 kts | 211° |
| 2026-04-22 17:49 | 44.14157 | -110.24814 | 35780 ft | 447 kts | 211° |
| 2026-04-22 17:49 | 44.08992 | -110.29660 | 35787 ft | 448 kts | 211° |
| 2026-04-22 17:50 | 44.03844 | -110.34481 | 35780 ft | 448 kts | 211° |
| 2026-04-22 17:50 | 43.98660 | -110.39325 | 35785 ft | 449 kts | 211° |
| 2026-04-22 17:51 | 43.93466 | -110.44168 | 35785 ft | 450 kts | 211° |
| 2026-04-22 17:51 | 43.88258 | -110.49012 | 35794 ft | 451 kts | 211° |
| 2026-04-22 17:52 | 43.83063 | -110.53836 | 35820 ft | 452 kts | 211° |
| 2026-04-22 17:52 | 43.77809 | -110.58704 | 35843 ft | 454 kts | 211° |
| 2026-04-22 17:53 | 43.72558 | -110.63559 | 35871 ft | 454 kts | 211° |
| 2026-04-22 17:53 | 43.67288 | -110.68422 | 35883 ft | 456 kts | 212° |
| 2026-04-22 17:54 | 43.61936 | -110.73143 | 35889 ft | 460 kts | 207° |
| 2026-04-22 17:54 | 43.56140 | -110.76815 | 35889 ft | 458 kts | 202° |
| 2026-04-22 17:55 | 43.51247 | -110.79663 | 35883 ft | 459 kts | 202° |
| 2026-04-22 17:55 | 43.44410 | -110.83670 | 35851 ft | 453 kts | 202° |
| 2026-04-22 17:56 | 43.38636 | -110.87073 | 35841 ft | 450 kts | 202° |
| 2026-04-22 17:56 | 43.32884 | -110.90460 | 35818 ft | 450 kts | 203° |
| 2026-04-22 17:57 | 43.27153 | -110.93827 | 35812 ft | 449 kts | 203° |
| 2026-04-22 17:57 | 43.21400 | -110.97200 | 35827 ft | 450 kts | 203° |
| 2026-04-22 17:58 | 43.15629 | -111.00577 | 35812 ft | 451 kts | 203° |
| 2026-04-22 17:58 | 43.09840 | -111.03957 | 35827 ft | 452 kts | 203° |
| 2026-04-22 17:59 | 43.04041 | -111.07336 | 35818 ft | 453 kts | 203° |
| 2026-04-22 17:59 | 42.98242 | -111.10708 | 35840 ft | 453 kts | 203° |
| 2026-04-22 18:00 | 42.93417 | -111.13508 | 35858 ft | 453 kts | 203° |
| 2026-04-22 18:00 | 42.86678 | -111.17411 | 35879 ft | 453 kts | 203° |
| 2026-04-22 18:01 | 42.80867 | -111.20769 | 35881 ft | 453 kts | 203° |
| 2026-04-22 18:01 | 42.75054 | -111.24122 | 35872 ft | 454 kts | 203° |
| 2026-04-22 18:02 | 42.69267 | -111.27452 | 35881 ft | 454 kts | 204° |
| 2026-04-22 18:02 | 42.63441 | -111.30799 | 35866 ft | 454 kts | 204° |
| 2026-04-22 18:03 | 42.57605 | -111.34144 | 35862 ft | 454 kts | 204° |
| 2026-04-22 18:03 | 42.51771 | -111.37480 | 35851 ft | 455 kts | 204° |
| 2026-04-22 18:04 | 42.45968 | -111.40793 | 35857 ft | 455 kts | 204° |
| 2026-04-22 18:04 | 42.40132 | -111.44118 | 35864 ft | 455 kts | 204° |
| 2026-04-22 18:05 | 42.34291 | -111.47440 | 35873 ft | 455 kts | 204° |
| 2026-04-22 18:05 | 42.28449 | -111.50755 | 35862 ft | 455 kts | 204° |
| 2026-04-22 18:06 | 42.22638 | -111.54045 | 35875 ft | 455 kts | 204° |
| 2026-04-22 18:06 | 42.16794 | -111.57347 | 35875 ft | 455 kts | 204° |
| 2026-04-22 18:07 | 42.11941 | -111.60084 | 35874 ft | 454 kts | 205° |
| 2026-04-22 18:07 | 42.05153 | -111.63906 | 35906 ft | 454 kts | 205° |
| 2026-04-22 18:08 | 41.99317 | -111.67185 | 35951 ft | 454 kts | 205° |
| 2026-04-22 18:08 | 41.93476 | -111.70460 | 35976 ft | 454 kts | 205° |
| 2026-04-22 18:09 | 41.87680 | -111.73703 | 36022 ft | 454 kts | 205° |
| 2026-04-22 18:09 | 41.81845 | -111.76961 | 36038 ft | 454 kts | 205° |
| 2026-04-22 18:10 | 41.76001 | -111.80218 | 36036 ft | 454 kts | 205° |
| 2026-04-22 18:10 | 41.71150 | -111.82917 | 36037 ft | 453 kts | 205° |
| 2026-04-22 18:11 | 41.65318 | -111.86155 | 36009 ft | 453 kts | 205° |
| 2026-04-22 18:11 | 41.59515 | -111.89372 | 36037 ft | 452 kts | 206° |
| 2026-04-22 18:12 | 41.53714 | -111.92581 | 36056 ft | 452 kts | 206° |
| 2026-04-22 18:12 | 41.47903 | -111.95789 | 36048 ft | 452 kts | 206° |
| 2026-04-22 18:13 | 41.42111 | -111.98981 | 36031 ft | 451 kts | 206° |
| 2026-04-22 18:13 | 41.36319 | -112.02167 | 36015 ft | 451 kts | 206° |
| 2026-04-22 18:14 | 41.30502 | -112.05361 | 36036 ft | 450 kts | 206° |
| 2026-04-22 18:14 | 41.24739 | -112.08519 | 36053 ft | 449 kts | 206° |
| 2026-04-22 18:15 | 41.18773 | -112.11089 | 36196 ft | 456 kts | 198° |
| 2026-04-22 18:15 | 41.15692 | -112.12091 | 36506 ft | 455 kts | 198° |
| 2026-04-22 18:15 | 41.12615 | -112.13090 | 36819 ft | 454 kts | 198° |
| 2026-04-22 18:15 | 41.09571 | -112.14083 | 37124 ft | 453 kts | 198° |
| 2026-04-22 18:16 | 41.06489 | -112.15095 | 37398 ft | 453 kts | 198° |
| 2026-04-22 18:16 | 41.03450 | -112.16097 | 37645 ft | 453 kts | 199° |
| 2026-04-22 18:16 | 41.00383 | -112.17112 | 37873 ft | 454 kts | 199° |
| 2026-04-22 18:17 | 40.94197 | -112.19162 | 37959 ft | 457 kts | 199° |
| 2026-04-22 18:17 | 40.88065 | -112.21187 | 37990 ft | 455 kts | 199° |
| 2026-04-22 18:18 | 40.81948 | -112.23203 | 37985 ft | 452 kts | 199° |
| 2026-04-22 18:18 | 40.75877 | -112.25201 | 38004 ft | 450 kts | 199° |
| 2026-04-22 18:19 | 40.69773 | -112.27207 | 38038 ft | 450 kts | 199° |
| 2026-04-22 18:19 | 40.63709 | -112.29196 | 38047 ft | 451 kts | 199° |
| 2026-04-22 18:20 | 40.57624 | -112.31189 | 38052 ft | 452 kts | 199° |
| 2026-04-22 18:20 | 40.51521 | -112.33183 | 38046 ft | 453 kts | 199° |
| 2026-04-22 18:21 | 40.45377 | -112.35187 | 38016 ft | 455 kts | 199° |
| 2026-04-22 18:21 | 40.39248 | -112.37181 | 37983 ft | 456 kts | 199° |
| 2026-04-22 18:22 | 40.33109 | -112.39174 | 37969 ft | 456 kts | 199° |
| 2026-04-22 18:22 | 40.26931 | -112.41176 | 37942 ft | 456 kts | 199° |
| 2026-04-22 18:23 | 40.20784 | -112.43165 | 37939 ft | 455 kts | 199° |
| 2026-04-22 18:23 | 40.14627 | -112.45154 | 37950 ft | 455 kts | 200° |
| 2026-04-22 18:24 | 40.05423 | -112.48120 | 37945 ft | 454 kts | 200° |
| 2026-04-22 18:25 | 39.96232 | -112.51072 | 37947 ft | 453 kts | 200° |
| 2026-04-22 18:25 | 39.90120 | -112.53033 | 37945 ft | 453 kts | 200° |
| 2026-04-22 18:26 | 39.80948 | -112.55967 | 37943 ft | 453 kts | 200° |
| 2026-04-22 18:26 | 39.74855 | -112.57911 | 37939 ft | 452 kts | 200° |
| 2026-04-22 18:27 | 39.68741 | -112.59859 | 37951 ft | 451 kts | 200° |
| 2026-04-22 18:27 | 39.62632 | -112.61801 | 37977 ft | 450 kts | 200° |
| 2026-04-22 18:28 | 39.56588 | -112.63719 | 37995 ft | 448 kts | 200° |
| 2026-04-22 18:28 | 39.50556 | -112.65630 | 38012 ft | 446 kts | 200° |
| 2026-04-22 18:29 | 39.44536 | -112.67534 | 38014 ft | 445 kts | 201° |
| 2026-04-22 18:29 | 39.38528 | -112.69430 | 38026 ft | 443 kts | 201° |
| 2026-04-22 18:30 | 39.29539 | -112.72263 | 37994 ft | 441 kts | 201° |
| 2026-04-22 18:31 | 39.23614 | -112.74125 | 37969 ft | 441 kts | 201° |
| 2026-04-22 18:31 | 39.17626 | -112.76004 | 37948 ft | 440 kts | 201° |
| 2026-04-22 18:32 | 39.11694 | -112.77864 | 37919 ft | 440 kts | 201° |
| 2026-04-22 18:32 | 39.05744 | -112.79725 | 37916 ft | 440 kts | 201° |
| 2026-04-22 18:33 | 38.99802 | -112.81580 | 37916 ft | 440 kts | 201° |
| 2026-04-22 18:33 | 38.93838 | -112.83438 | 37915 ft | 441 kts | 201° |
| 2026-04-22 18:34 | 38.87880 | -112.85291 | 37921 ft | 441 kts | 202° |
| 2026-04-22 18:34 | 38.81937 | -112.87137 | 37920 ft | 441 kts | 202° |
| 2026-04-22 18:35 | 38.75972 | -112.88986 | 37929 ft | 440 kts | 202° |
| 2026-04-22 18:35 | 38.69997 | -112.90836 | 37958 ft | 441 kts | 202° |
| 2026-04-22 18:36 | 38.64051 | -112.92673 | 37988 ft | 441 kts | 202° |
| 2026-04-22 18:36 | 38.58052 | -112.94524 | 38017 ft | 441 kts | 202° |
| 2026-04-22 18:37 | 38.52088 | -112.96360 | 38043 ft | 442 kts | 202° |
| 2026-04-22 18:37 | 38.47133 | -112.97884 | 38050 ft | 442 kts | 202° |
| 2026-04-22 18:38 | 38.40166 | -113.00081 | 38046 ft | 437 kts | 207° |
| 2026-04-22 18:38 | 38.34802 | -113.03327 | 38065 ft | 422 kts | 219° |
| 2026-04-22 18:39 | 38.28056 | -113.10292 | 38021 ft | 414 kts | 229° |
| 2026-04-22 18:39 | 38.23817 | -113.15227 | 37992 ft | 414 kts | 229° |
| 2026-04-22 18:40 | 38.19553 | -113.20140 | 37962 ft | 415 kts | 228° |
| 2026-04-22 18:40 | 38.15253 | -113.25055 | 37935 ft | 415 kts | 228° |
| 2026-04-22 18:41 | 38.10957 | -113.29951 | 37916 ft | 415 kts | 228° |
| 2026-04-22 18:41 | 38.06633 | -113.34871 | 37912 ft | 415 kts | 228° |
| 2026-04-22 18:42 | 38.02366 | -113.39722 | 37911 ft | 414 kts | 228° |
| 2026-04-22 18:42 | 37.98057 | -113.44610 | 37907 ft | 413 kts | 229° |
| 2026-04-22 18:43 | 37.93259 | -113.48745 | 37919 ft | 427 kts | 215° |
| 2026-04-22 18:43 | 37.87685 | -113.51476 | 37785 ft | 441 kts | 202° |
| 2026-04-22 18:44 | 37.81603 | -113.52971 | 37735 ft | 444 kts | 200° |
| 2026-04-22 18:44 | 37.75544 | -113.54335 | 37704 ft | 443 kts | 201° |
| 2026-04-22 18:45 | 37.69484 | -113.55748 | 37644 ft | 442 kts | 201° |
| 2026-04-22 18:45 | 37.63440 | -113.57196 | 37590 ft | 441 kts | 201° |
| 2026-04-22 18:46 | 37.57412 | -113.58649 | 37529 ft | 440 kts | 201° |
| 2026-04-22 18:46 | 37.51423 | -113.60088 | 37481 ft | 440 kts | 201° |
| 2026-04-22 18:47 | 37.45402 | -113.61530 | 37428 ft | 439 kts | 201° |
| 2026-04-22 18:47 | 37.39397 | -113.62967 | 37372 ft | 439 kts | 201° |
| 2026-04-22 18:48 | 37.33497 | -113.64376 | 37318 ft | 438 kts | 202° |
| 2026-04-22 18:48 | 37.29773 | -113.65265 | 37288 ft | 438 kts | 202° |
| 2026-04-22 18:49 | 37.26410 | -113.66066 | 37249 ft | 438 kts | 202° |
| 2026-04-22 18:49 | 37.20443 | -113.67482 | 37140 ft | 436 kts | 202° |
| 2026-04-22 18:50 | 37.14439 | -113.68916 | 37047 ft | 438 kts | 202° |
| 2026-04-22 18:50 | 37.08483 | -113.70327 | 37051 ft | 437 kts | 202° |
| 2026-04-22 18:51 | 37.02678 | -113.72164 | 37047 ft | 424 kts | 210° |
| 2026-04-22 18:51 | 36.97200 | -113.74861 | 37435 ft | 424 kts | 212° |
| 2026-04-22 18:52 | 36.94442 | -113.76213 | 37768 ft | 423 kts | 212° |
| 2026-04-22 18:52 | 36.91716 | -113.77542 | 37955 ft | 424 kts | 212° |
| 2026-04-22 18:52 | 36.86195 | -113.80218 | 38021 ft | 426 kts | 212° |
| 2026-04-22 18:53 | 36.80674 | -113.82882 | 37999 ft | 423 kts | 211° |
| 2026-04-22 18:53 | 36.75176 | -113.85534 | 38008 ft | 423 kts | 212° |
| 2026-04-22 18:54 | 36.69705 | -113.88172 | 37991 ft | 423 kts | 211° |
| 2026-04-22 18:54 | 36.64226 | -113.90835 | 38013 ft | 422 kts | 213° |
| 2026-04-22 18:55 | 36.58874 | -113.93806 | 38015 ft | 421 kts | 214° |
| 2026-04-22 18:55 | 36.53543 | -113.96822 | 38003 ft | 422 kts | 214° |
| 2026-04-22 18:56 | 36.48167 | -113.99804 | 38004 ft | 423 kts | 214° |
| 2026-04-22 18:56 | 36.42788 | -114.02771 | 38003 ft | 423 kts | 214° |
| 2026-04-22 18:57 | 36.37722 | -114.06231 | 37999 ft | 414 kts | 221° |
| 2026-04-22 18:57 | 36.32838 | -114.10014 | 37993 ft | 414 kts | 221° |
| 2026-04-22 18:58 | 36.27928 | -114.13786 | 37994 ft | 415 kts | 221° |
| 2026-04-22 18:58 | 36.23013 | -114.17543 | 37986 ft | 415 kts | 220° |
| 2026-04-22 18:59 | 36.18097 | -114.21293 | 37971 ft | 416 kts | 220° |
| 2026-04-22 18:59 | 36.13170 | -114.25046 | 37975 ft | 416 kts | 220° |
| 2026-04-22 19:00 | 36.08563 | -114.29185 | 37984 ft | 406 kts | 228° |
| 2026-04-22 19:00 | 36.04570 | -114.33974 | 37979 ft | 399 kts | 234° |
| 2026-04-22 19:01 | 36.00882 | -114.39102 | 37984 ft | 399 kts | 235° |
| 2026-04-22 19:01 | 35.97200 | -114.44243 | 37982 ft | 400 kts | 235° |
| 2026-04-22 19:02 | 35.93480 | -114.49407 | 37990 ft | 402 kts | 234° |
| 2026-04-22 19:02 | 35.89768 | -114.54536 | 38015 ft | 403 kts | 234° |
| 2026-04-22 19:03 | 35.86035 | -114.59683 | 38026 ft | 403 kts | 234° |
| 2026-04-22 19:03 | 35.82286 | -114.64847 | 38026 ft | 405 kts | 234° |
| 2026-04-22 19:04 | 35.78517 | -114.70028 | 38039 ft | 406 kts | 234° |
| 2026-04-22 19:04 | 35.74728 | -114.75227 | 38051 ft | 406 kts | 234° |
| 2026-04-22 19:05 | 35.70963 | -114.80390 | 38046 ft | 405 kts | 234° |
| 2026-04-22 19:05 | 35.67201 | -114.85539 | 38061 ft | 405 kts | 234° |
| 2026-04-22 19:06 | 35.63461 | -114.90662 | 38064 ft | 405 kts | 234° |
| 2026-04-22 19:07 | 35.57806 | -114.98416 | 38072 ft | 405 kts | 234° |
| 2026-04-22 19:07 | 35.54047 | -115.03560 | 38079 ft | 404 kts | 234° |
| 2026-04-22 19:08 | 35.50299 | -115.08675 | 38079 ft | 404 kts | 234° |
| 2026-04-22 19:08 | 35.46476 | -115.13699 | 38088 ft | 405 kts | 233° |
| 2026-04-22 19:09 | 35.43237 | -115.17898 | 38095 ft | 406 kts | 233° |
| 2026-04-22 19:09 | 35.39354 | -115.22938 | 38106 ft | 407 kts | 233° |
| 2026-04-22 19:10 | 35.35491 | -115.27963 | 38110 ft | 407 kts | 233° |
| 2026-04-22 19:10 | 35.31585 | -115.33040 | 38109 ft | 407 kts | 233° |
| 2026-04-22 19:11 | 35.27711 | -115.38068 | 38117 ft | 407 kts | 233° |
| 2026-04-22 19:11 | 35.23824 | -115.43106 | 38124 ft | 408 kts | 233° |
| 2026-04-22 19:12 | 35.19930 | -115.48145 | 38127 ft | 408 kts | 233° |
| 2026-04-22 19:12 | 35.16038 | -115.53176 | 38134 ft | 408 kts | 233° |
| 2026-04-22 19:13 | 35.12144 | -115.58199 | 38137 ft | 408 kts | 233° |
| 2026-04-22 19:13 | 35.08230 | -115.63213 | 38136 ft | 408 kts | 233° |
| 2026-04-22 19:14 | 35.04294 | -115.68237 | 38136 ft | 408 kts | 233° |
| 2026-04-22 19:14 | 35.00384 | -115.73225 | 38133 ft | 407 kts | 233° |
| 2026-04-22 19:15 | 34.96461 | -115.78226 | 38133 ft | 407 kts | 233° |
| 2026-04-22 19:15 | 34.92543 | -115.83215 | 38119 ft | 408 kts | 233° |
| 2026-04-22 19:16 | 34.88623 | -115.88198 | 38117 ft | 408 kts | 233° |
| 2026-04-22 19:16 | 34.84699 | -115.93178 | 38111 ft | 408 kts | 233° |
| 2026-04-22 19:17 | 34.80759 | -115.98174 | 38107 ft | 408 kts | 233° |
| 2026-04-22 19:17 | 34.76830 | -116.03147 | 38101 ft | 408 kts | 233° |
| 2026-04-22 19:18 | 34.72916 | -116.08130 | 38118 ft | 408 kts | 233° |
| 2026-04-22 19:18 | 34.68992 | -116.13131 | 38098 ft | 409 kts | 233° |
| 2026-04-22 19:19 | 34.65059 | -116.18132 | 38091 ft | 409 kts | 233° |
| 2026-04-22 19:19 | 34.61163 | -116.23078 | 38099 ft | 408 kts | 233° |
| 2026-04-22 19:20 | 34.57216 | -116.28081 | 38124 ft | 407 kts | 233° |
| 2026-04-22 19:20 | 34.53292 | -116.33051 | 37607 ft | 414 kts | 233° |
| 2026-04-22 19:20 | 34.51298 | -116.35578 | 36935 ft | 415 kts | 233° |
| 2026-04-22 19:21 | 34.49297 | -116.38105 | 36167 ft | 420 kts | 232° |
| 2026-04-22 19:21 | 34.47253 | -116.40693 | 35420 ft | 434 kts | 232° |
| 2026-04-22 19:21 | 34.45152 | -116.43345 | 34850 ft | 440 kts | 231° |
| 2026-04-22 19:21 | 34.43039 | -116.46003 | 34192 ft | 436 kts | 232° |
| 2026-04-22 19:22 | 34.41135 | -116.48833 | 33498 ft | 432 kts | 242° |
| 2026-04-22 19:22 | 34.39803 | -116.52058 | 33249 ft | 427 kts | 248° |
| 2026-04-22 19:22 | 34.38541 | -116.55293 | 33205 ft | 423 kts | 246° |
| 2026-04-22 19:23 | 34.35951 | -116.61652 | 32235 ft | 428 kts | 246° |
| 2026-04-22 19:23 | 34.34611 | -116.64893 | 31293 ft | 429 kts | 245° |
| 2026-04-22 19:23 | 34.33268 | -116.68140 | 30558 ft | 439 kts | 245° |
| 2026-04-22 19:23 | 34.31894 | -116.71518 | 29711 ft | 450 kts | 245° |
| 2026-04-22 19:24 | 34.30528 | -116.74925 | 28990 ft | 457 kts | 245° |
| 2026-04-22 19:24 | 34.29133 | -116.78410 | 28251 ft | 461 kts | 245° |
| 2026-04-22 19:24 | 34.27724 | -116.81921 | 27525 ft | 461 kts | 245° |
| 2026-04-22 19:24 | 34.26339 | -116.85359 | 26525 ft | 456 kts | 245° |
| 2026-04-22 19:25 | 34.24968 | -116.88757 | 25675 ft | 436 kts | 245° |
| 2026-04-22 19:25 | 34.23661 | -116.91991 | 25030 ft | 429 kts | 245° |
| 2026-04-22 19:25 | 34.22358 | -116.95215 | 24497 ft | 419 kts | 245° |
| 2026-04-22 19:25 | 34.21140 | -116.98241 | 23743 ft | 394 kts | 246° |
| 2026-04-22 19:26 | 34.20167 | -117.01263 | 22946 ft | 381 kts | 252° |
| 2026-04-22 19:26 | 34.19384 | -117.04315 | 22298 ft | 378 kts | 253° |
| 2026-04-22 19:26 | 34.18640 | -117.07309 | 21643 ft | 377 kts | 253° |
| 2026-04-22 19:26 | 34.17855 | -117.10338 | 20995 ft | 375 kts | 253° |
| 2026-04-22 19:27 | 34.17060 | -117.13302 | 20377 ft | 374 kts | 252° |
| 2026-04-22 19:27 | 34.16247 | -117.16291 | 19756 ft | 373 kts | 252° |
| 2026-04-22 19:27 | 34.15431 | -117.19256 | 19135 ft | 372 kts | 252° |
| 2026-04-22 19:27 | 34.14610 | -117.22232 | 18517 ft | 371 kts | 253° |
| 2026-04-22 19:28 | 34.13799 | -117.25170 | 17809 ft | 371 kts | 253° |
| 2026-04-22 19:28 | 34.12994 | -117.28091 | 17156 ft | 369 kts | 253° |
| 2026-04-22 19:28 | 34.12184 | -117.31029 | 16528 ft | 367 kts | 253° |
| 2026-04-22 19:28 | 34.11377 | -117.33953 | 15885 ft | 365 kts | 253° |
| 2026-04-22 19:29 | 34.10572 | -117.36867 | 15153 ft | 367 kts | 253° |
| 2026-04-22 19:29 | 34.09805 | -117.39813 | 14556 ft | 365 kts | 255° |
| 2026-04-22 19:29 | 34.09121 | -117.42584 | 14370 ft | 331 kts | 255° |
| 2026-04-22 19:29 | 34.08497 | -117.45108 | 14220 ft | 298 kts | 255° |
| 2026-04-22 19:30 | 34.08110 | -117.46655 | 14126 ft | 279 kts | 255° |
| 2026-04-22 19:30 | 34.07407 | -117.49461 | 13964 ft | 248 kts | 256° |
| 2026-04-22 19:30 | 34.06896 | -117.51493 | 13715 ft | 271 kts | 255° |
| 2026-04-22 19:30 | 34.06308 | -117.53821 | 13367 ft | 297 kts | 255° |
| 2026-04-22 19:31 | 34.05702 | -117.56193 | 12990 ft | 298 kts | 255° |
| 2026-04-22 19:31 | 34.05087 | -117.58592 | 12606 ft | 298 kts | 255° |
| 2026-04-22 19:31 | 34.04481 | -117.60957 | 12238 ft | 297 kts | 255° |
| 2026-04-22 19:31 | 34.03871 | -117.63343 | 11875 ft | 297 kts | 255° |
| 2026-04-22 19:32 | 34.03266 | -117.65703 | 11505 ft | 297 kts | 255° |
| 2026-04-22 19:32 | 34.02654 | -117.68086 | 11186 ft | 294 kts | 255° |
| 2026-04-22 19:32 | 34.02089 | -117.70434 | 10847 ft | 291 kts | 260° |
| 2026-04-22 19:32 | 34.01804 | -117.72838 | 10521 ft | 287 kts | 265° |
| 2026-04-22 19:33 | 34.01615 | -117.75171 | 10103 ft | 279 kts | 266° |
| 2026-04-22 19:33 | 34.01427 | -117.77455 | 9760 ft | 263 kts | 266° |
| 2026-04-22 19:33 | 34.01236 | -117.79632 | 9412 ft | 262 kts | 265° |
| 2026-04-22 19:33 | 34.01032 | -117.81829 | 9057 ft | 262 kts | 265° |
| 2026-04-22 19:34 | 34.00825 | -117.83989 | 8728 ft | 260 kts | 265° |
| 2026-04-22 19:34 | 34.00614 | -117.86163 | 8398 ft | 259 kts | 265° |
| 2026-04-22 19:34 | 34.00407 | -117.88285 | 8086 ft | 257 kts | 265° |
| 2026-04-22 19:34 | 34.00211 | -117.90429 | 7760 ft | 256 kts | 266° |
| 2026-04-22 19:35 | 34.00034 | -117.92573 | 7441 ft | 255 kts | 265° |
| 2026-04-22 19:35 | 33.99841 | -117.94670 | 7132 ft | 254 kts | 265° |
| 2026-04-22 19:35 | 33.99705 | -117.96068 | 6934 ft | 254 kts | 265° |
| 2026-04-22 19:35 | 33.99420 | -117.98903 | 6511 ft | 254 kts | 265° |
| 2026-04-22 19:36 | 33.99206 | -118.00993 | 6178 ft | 254 kts | 264° |
| 2026-04-22 19:36 | 33.98992 | -118.03094 | 6027 ft | 246 kts | 264° |
| 2026-04-22 19:36 | 33.98787 | -118.05104 | 5825 ft | 242 kts | 264° |
| 2026-04-22 19:36 | 33.98593 | -118.07016 | 5546 ft | 240 kts | 265° |
| 2026-04-22 19:37 | 33.98391 | -118.08999 | 5239 ft | 239 kts | 264° |
| 2026-04-22 19:37 | 33.98188 | -118.10993 | 4931 ft | 238 kts | 264° |
| 2026-04-22 19:37 | 33.97987 | -118.12953 | 4641 ft | 237 kts | 263° |
| 2026-04-22 19:37 | 33.97786 | -118.14934 | 4293 ft | 236 kts | 263° |
| 2026-04-22 19:38 | 33.97586 | -118.16901 | 3981 ft | 235 kts | 263° |
| 2026-04-22 19:38 | 33.97389 | -118.18832 | 3661 ft | 234 kts | 262° |
| 2026-04-22 19:38 | 33.97191 | -118.20775 | 3357 ft | 233 kts | 262° |
| 2026-04-22 19:38 | 33.96994 | -118.22700 | 3024 ft | 225 kts | 262° |
| 2026-04-22 19:39 | 33.96811 | -118.24503 | 2730 ft | 212 kts | 262° |
| 2026-04-22 19:39 | 33.96637 | -118.26199 | 2461 ft | 198 kts | 262° |
| 2026-04-22 19:39 | 33.96475 | -118.27796 | 2205 ft | 185 kts | 261° |
| 2026-04-22 19:39 | 33.96325 | -118.29270 | 2012 ft | 169 kts | 262° |
| 2026-04-22 19:40 | 33.96187 | -118.30622 | 1754 ft | 155 kts | 261° |
| 2026-04-22 19:40 | 33.96065 | -118.31831 | 1533 ft | 134 kts | 261° |
| 2026-04-22 19:40 | 33.95956 | -118.32905 | 1429 ft | 133 kts | 261° |
| 2026-04-22 19:40 | 33.95839 | -118.34038 | 1272 ft | 140 kts | 261° |
| 2026-04-22 19:41 | 33.95710 | -118.35205 | 1099 ft | 137 kts | 261° |
| 2026-04-22 19:41 | 33.95596 | -118.36361 | 858 ft | 140 kts | 262° |
| 2026-04-22 19:41 | 33.95487 | -118.37487 | 649 ft | 134 kts | 260° |
| 2026-04-22 19:41 | 33.95379 | -118.38601 | 411 ft | 128 kts | 261° |
| 2026-04-22 19:42 | 33.95267 | -118.39647 | 249 ft | 128 kts | 259° |
| 2026-04-22 19:42 | 33.95163 | -118.40697 | 111 ft | 118 kts | 261° |
| 2026-04-22 19:42 | 33.95074 | -118.41535 | 113 ft | 78 kts | 263° |
| 2026-04-22 19:42 | 33.95032 | -118.41955 | 112 ft | 27 kts | 261° |
| 2026-04-22 19:43 | 33.94914 | -118.42222 | 109 ft | 13 kts | 221° |
| 2026-04-22 19:43 | 33.94843 | -118.42274 | 110 ft | 10 kts | 197° |
| 2026-04-22 19:43 | 33.94778 | -118.42278 | 110 ft | 10 kts | 176° |
| 2026-04-22 19:44 | 33.94696 | -118.42271 | 105 ft | 15 kts | 174° |
| 2026-04-22 19:44 | 33.94622 | -118.42233 | 103 ft | 9 kts | 114° |
| 2026-04-22 19:44 | 33.94615 | -118.42156 | 104 ft | 10 kts | 88° |
| 2026-04-22 19:44 | 33.94627 | -118.42000 | 103 ft | 25 kts | 86° |
| 2026-04-22 19:45 | 33.94628 | -118.41913 | 103 ft | 9 kts | 90° |
| 2026-04-22 19:45 | 33.94635 | -118.41851 | 100 ft | 7 kts | 81° |
| 2026-04-22 19:45 | 33.94640 | -118.41789 | 100 ft | 8 kts | 84° |
| 2026-04-22 19:45 | 33.94623 | -118.41731 | 103 ft | 8 kts | 143° |
| 2026-04-22 19:46 | 33.94566 | -118.41709 | 100 ft | 9 kts | 170° |
| 2026-04-22 19:46 | 33.94502 | -118.41698 | 101 ft | 9 kts | 173° |
| 2026-04-22 19:46 | 33.94437 | -118.41688 | 101 ft | 9 kts | 173° |
| 2026-04-22 19:46 | 33.94372 | -118.41675 | 101 ft | 9 kts | 160° |
| 2026-04-22 19:47 | 33.94347 | -118.41608 | 100 ft | 4 kts | 88° |
| 2026-04-22 19:47 | 33.94348 | -118.41594 | 101 ft | 0 kts | 85° |
| 2026-04-22 19:47 | 33.94348 | -118.41591 | 100 ft | 1 kts | 85° |
| 2026-04-22 19:47 | 33.94349 | -118.41579 | 99 ft | 0 kts | 85° |
| 2026-04-22 19:48 | 33.94350 | -118.41576 | 99 ft | 0 kts | 84° |